NOAA Web Site Link Tides and Currents Home Page Transparent placeholder image

PORTS® Data Listing: 8638610 Sewells Point, VA

CO-OPS RAW PORTS DATA

************************      PRELIMINARY DATA      ************************** 

     THIS RAW DATA HAS NOT BEEN SUBJECT TO THE NATIONAL OCEAN SERVICE'S        
     QUALITY CONTROL OR QUALITY ASSURANCE PROCEDURES AND DOES NOT MEET         
     THE CRITERIA AND STANDARDS OF OFFICIAL NATIONAL OCEAN SERVICE             
     DATA.  IT IS RELEASED FOR LIMITED PUBLIC USE AS PRELIMINARY DATA TO       
     BE USED ONLY WITH APPROPRIATE CAUTION.                                    

************************      PRELIMINARY DATA      ************************** 


       CD   -   Calendar date
       T    -   Time
       TZ   -   Timezone
       PW   -   Predicted water level (feet above MLLW)
       OW   -   Observed water level (feet above MLLW)
       WS   -   Wind speed (knots)
       WD   -   Wind direction (degrees true)
       WG   -   Wind gust (knots)
       AT   -   Air temperature (degrees farenheit)
       WT   -   Water temperature (degrees farenheit)
       AP   -   Air pressure (millibars)
       SA   -   Salinty (PSU - Practical Salinity Units)
       SG   -   Specific gravity
       RH   -   Relative humidity
       AG   -   Air gap (feet)
       VI   -   Visibility (nautical miles)

       ** NOTE **
       A variable that has its data fields filled with "9"s, indicates that
       data was not collected for that sample period.
       **********


STATION NAME: Sewells Point (8638610)
****************************************************************************************************
    CD       T    TZ    PW     OW    WS   WD   WG    AT    WT    AP    SA    SG     RH    AG   VI
****************************************************************************************************
2019/07/18 02:42 EDT    0.90   1.17 -999 -999 -999 -99.9 -99.9 1014.1 -9.9 -9.999 -99.9 -99.99 -9.99
2019/07/18 02:48 EDT    0.84   1.12 -999 -999 -999 -99.9 -99.9 1014.1 -9.9 -9.999 -99.9 -99.99 -9.99
2019/07/18 02:54 EDT    0.78   1.01 -999 -999 -999 -99.9 -99.9 1013.9 -9.9 -9.999 -99.9 -99.99 -9.99
2019/07/18 03:00 EDT    0.72   0.94 -999 -999 -999 -99.9 -99.9 1013.7 -9.9 -9.999 -99.9 -99.99 -9.99
2019/07/18 03:06 EDT    0.67   0.85 -999 -999 -999 -99.9 -99.9 1013.4 -9.9 -9.999 -99.9 -99.99 -9.99
2019/07/18 03:12 EDT    0.61   0.82 -999 -999 -999 -99.9 -99.9 1013.5 -9.9 -9.999 -99.9 -99.99 -9.99
2019/07/18 03:18 EDT    0.56   0.74 -999 -999 -999 -99.9 -99.9 1013.5 -9.9 -9.999 -99.9 -99.99 -9.99
2019/07/18 03:24 EDT    0.51   0.70 -999 -999 -999 -99.9 -99.9 1013.4 -9.9 -9.999 -99.9 -99.99 -9.99
2019/07/18 03:30 EDT    0.46   0.66 -999 -999 -999 -99.9 -99.9 1013.3 -9.9 -9.999 -99.9 -99.99 -9.99
2019/07/18 03:36 EDT    0.41   0.63 -999 -999 -999 -99.9 -99.9 1013.3 -9.9 -9.999 -99.9 -99.99 -9.99
2019/07/18 03:42 EDT    0.37   0.57 -999 -999 -999 -99.9 -99.9 1013.3 -9.9 -9.999 -99.9 -99.99 -9.99
2019/07/18 03:48 EDT    0.33   0.55 -999 -999 -999 -99.9 -99.9 1013.2 -9.9 -9.999 -99.9 -99.99 -9.99
2019/07/18 03:54 EDT    0.29   0.51 -999 -999 -999 -99.9 -99.9 1013.2 -9.9 -9.999 -99.9 -99.99 -9.99
2019/07/18 04:00 EDT    0.26   0.49 -999 -999 -999 -99.9 -99.9 1013.1 -9.9 -9.999 -99.9 -99.99 -9.99
2019/07/18 04:06 EDT    0.23   0.45 -999 -999 -999 -99.9 -99.9 1013.1 -9.9 -9.999 -99.9 -99.99 -9.99
2019/07/18 04:12 EDT    0.20   0.42 -999 -999 -999 -99.9 -99.9 1013.0 -9.9 -9.999 -99.9 -99.99 -9.99
2019/07/18 04:18 EDT    0.18   0.39 -999 -999 -999 -99.9 -99.9 1013.0 -9.9 -9.999 -99.9 -99.99 -9.99
2019/07/18 04:24 EDT    0.16   0.35 -999 -999 -999 -99.9  84.9 1012.9 15.7  1.008 -99.9 -99.99 -9.99
2019/07/18 04:30 EDT    0.14   0.33 -999 -999 -999 -99.9  84.7 1013.0 15.7  1.008 -99.9 -99.99 -9.99
2019/07/18 04:36 EDT    0.12   0.30 -999 -999 -999 -99.9  84.7 1013.0 15.7  1.008 -99.9 -99.99 -9.99
2019/07/18 04:42 EDT    0.11   0.27 -999 -999 -999 -99.9  84.7 1013.0 15.8  1.009 -99.9 -99.99 -9.99
2019/07/18 04:48 EDT    0.10   0.26 -999 -999 -999 -99.9  84.7 1013.1 15.8  1.009 -99.9 -99.99 -9.99
2019/07/18 04:54 EDT    0.10   0.27 -999 -999 -999 -99.9  84.7 1013.1 15.7  1.008 -99.9 -99.99 -9.99
2019/07/18 05:00 EDT    0.10   0.28 -999 -999 -999 -99.9  84.7 1013.0 15.8  1.009 -99.9 -99.99 -9.99
2019/07/18 05:06 EDT    0.10   0.29 -999 -999 -999 -99.9  84.7 1013.0 15.8  1.009 -99.9 -99.99 -9.99
2019/07/18 05:12 EDT    0.11   0.32 -999 -999 -999 -99.9  84.7 1013.0 15.7  1.008 -99.9 -99.99 -9.99
2019/07/18 05:18 EDT    0.12   0.36 -999 -999 -999 -99.9  84.7 1013.0 15.7  1.008 -99.9 -99.99 -9.99
2019/07/18 05:24 EDT    0.13   0.38 -999 -999 -999 -99.9  84.6 1013.0 15.8  1.009 -99.9 -99.99 -9.99
2019/07/18 05:30 EDT    0.14   0.44 -999 -999 -999 -99.9  84.6 1013.1 15.8  1.009 -99.9 -99.99 -9.99
2019/07/18 05:36 EDT    0.16   0.42 -999 -999 -999 -99.9  84.6 1013.0 15.8  1.009 -99.9 -99.99 -9.99
2019/07/18 05:42 EDT    0.19   0.47 -999 -999 -999 -99.9  84.4 1013.1 15.9  1.009 -99.9 -99.99 -9.99
2019/07/18 05:48 EDT    0.21   0.45 -999 -999 -999 -99.9  84.0 1013.1 16.0  1.009 -99.9 -99.99 -9.99
2019/07/18 05:54 EDT    0.24   0.48 -999 -999 -999 -99.9  84.0 1013.1 16.0  1.009 -99.9 -99.99 -9.99
2019/07/18 06:00 EDT    0.27   0.47 -999 -999 -999 -99.9  84.0 1013.1 16.0  1.009 -99.9 -99.99 -9.99
2019/07/18 06:06 EDT    0.30   0.49 -999 -999 -999 -99.9  83.7 1013.2 16.1  1.009 -99.9 -99.99 -9.99
2019/07/18 06:12 EDT    0.34   0.50 -999 -999 -999 -99.9  83.5 1013.2 16.2  1.009 -99.9 -99.99 -9.99
2019/07/18 06:18 EDT    0.38   0.53 -999 -999 -999 -99.9  83.7 1013.3 16.2  1.009 -99.9 -99.99 -9.99
2019/07/18 06:24 EDT    0.42   0.53 -999 -999 -999 -99.9  83.5 1013.3 16.2  1.009 -99.9 -99.99 -9.99
2019/07/18 06:30 EDT    0.47   0.57 -999 -999 -999 -99.9  83.5 1013.4 16.3  1.009 -99.9 -99.99 -9.99
2019/07/18 06:36 EDT    0.51   0.61 -999 -999 -999 -99.9  83.7 1013.4 16.2  1.009 -99.9 -99.99 -9.99
2019/07/18 06:42 EDT    0.56   0.66 -999 -999 -999 -99.9  84.0 1013.5 16.1  1.009 -99.9 -99.99 -9.99
2019/07/18 06:48 EDT    0.61   0.70 -999 -999 -999 -99.9  84.0 1013.6 16.1  1.009 -99.9 -99.99 -9.99
2019/07/18 06:54 EDT    0.66   0.76 -999 -999 -999 -99.9  84.0 1013.6 16.0  1.009 -99.9 -99.99 -9.99
2019/07/18 07:00 EDT    0.71   0.81 -999 -999 -999 -99.9  84.0 1013.7 16.0  1.009 -99.9 -99.99 -9.99
2019/07/18 07:06 EDT    0.77   0.87 -999 -999 -999 -99.9  84.0 1013.7 16.0  1.009 -99.9 -99.99 -9.99
2019/07/18 07:12 EDT    0.83   0.93 -999 -999 -999 -99.9  83.8 1013.8 16.1  1.009 -99.9 -99.99 -9.99
2019/07/18 07:18 EDT    0.88   0.97 -999 -999 -999 -99.9  83.8 1013.8 16.1  1.009 -99.9 -99.99 -9.99
2019/07/18 07:24 EDT    0.94   1.03 -999 -999 -999 -99.9  83.8 1013.9 16.1  1.009 -99.9 -99.99 -9.99
2019/07/18 07:30 EDT    1.00   1.08 -999 -999 -999 -99.9  84.0 1013.9 16.0  1.009 -99.9 -99.99 -9.99
2019/07/18 07:36 EDT    1.06   1.14 -999 -999 -999 -99.9  84.0 1014.0 16.0  1.009 -99.9 -99.99 -9.99
2019/07/18 07:42 EDT    1.12   1.21 -999 -999 -999 -99.9  84.0 1014.0 16.0  1.009 -99.9 -99.99 -9.99
2019/07/18 07:48 EDT    1.18   1.27 -999 -999 -999 -99.9  84.0 1014.1 16.0  1.009 -99.9 -99.99 -9.99
2019/07/18 07:54 EDT    1.24   1.34 -999 -999 -999 -99.9 -99.9 1014.0 -9.9 -9.999 -99.9 -99.99 -9.99
2019/07/18 08:00 EDT    1.30   1.39 -999 -999 -999 -99.9 -99.9 1014.0 -9.9 -9.999 -99.9 -99.99 -9.99
2019/07/18 08:06 EDT    1.36   1.45 -999 -999 -999 -99.9 -99.9 1014.1 -9.9 -9.999 -99.9 -99.99 -9.99
2019/07/18 08:12 EDT    1.42   1.48 -999 -999 -999 -99.9  84.0 1014.0 15.8  1.009 -99.9 -99.99 -9.99
2019/07/18 08:18 EDT    1.47   1.53 -999 -999 -999 -99.9  84.0 1014.0 15.9  1.009 -99.9 -99.99 -9.99
2019/07/18 08:24 EDT    1.53   1.59 -999 -999 -999 -99.9  83.8 1014.0 16.0  1.009 -99.9 -99.99 -9.99
2019/07/18 08:30 EDT    1.59   1.64 -999 -999 -999 -99.9  84.0 1014.0 15.9  1.009 -99.9 -99.99 -9.99
2019/07/18 08:36 EDT    1.64   1.69 -999 -999 -999 -99.9  84.0 1014.0 15.8  1.009 -99.9 -99.99 -9.99
2019/07/18 08:42 EDT    1.70   1.74 -999 -999 -999 -99.9  84.0 1014.0 15.8  1.009 -99.9 -99.99 -9.99
2019/07/18 08:48 EDT    1.75   1.79 -999 -999 -999 -99.9  83.8 1014.0 15.9  1.009 -99.9 -99.99 -9.99
2019/07/18 08:54 EDT    1.80   1.85 -999 -999 -999 -99.9  84.0 1014.1 15.8  1.009 -99.9 -99.99 -9.99
2019/07/18 09:00 EDT    1.85   1.91 -999 -999 -999 -99.9 -99.9 1014.0 -9.9 -9.999 -99.9 -99.99 -9.99
2019/07/18 09:06 EDT    1.90   1.96 -999 -999 -999 -99.9 -99.9 1014.1 -9.9 -9.999 -99.9 -99.99 -9.99
2019/07/18 09:12 EDT    1.95   2.02 -999 -999 -999 -99.9 -99.9 1014.1 -9.9 -9.999 -99.9 -99.99 -9.99
2019/07/18 09:18 EDT    1.99   2.07 -999 -999 -999 -99.9 -99.9 1014.1 -9.9 -9.999 -99.9 -99.99 -9.99
2019/07/18 09:24 EDT    2.03   2.12 -999 -999 -999 -99.9 -99.9 1014.0 -9.9 -9.999 -99.9 -99.99 -9.99
2019/07/18 09:30 EDT    2.07   2.16 -999 -999 -999 -99.9 -99.9 1013.9 -9.9 -9.999 -99.9 -99.99 -9.99
2019/07/18 09:36 EDT    2.11 -99.99 -999 -999 -999 -99.9 -99.9 -999.9 -9.9 -9.999 -99.9 -99.99 -9.99
2019/07/18 09:42 EDT    2.15 -99.99 -999 -999 -999 -99.9 -99.9 -999.9 -9.9 -9.999 -99.9 -99.99 -9.99
2019/07/18 09:48 EDT    2.18 -99.99 -999 -999 -999 -99.9 -99.9 -999.9 -9.9 -9.999 -99.9 -99.99 -9.99
2019/07/18 09:54 EDT    2.21 -99.99 -999 -999 -999 -99.9 -99.9 -999.9 -9.9 -9.999 -99.9 -99.99 -9.99
2019/07/18 10:00 EDT    2.24 -99.99 -999 -999 -999 -99.9 -99.9 -999.9 -9.9 -9.999 -99.9 -99.99 -9.99
2019/07/18 10:06 EDT    2.26 -99.99 -999 -999 -999 -99.9 -99.9 -999.9 -9.9 -9.999 -99.9 -99.99 -9.99
2019/07/18 10:12 EDT    2.29 -99.99 -999 -999 -999 -99.9 -99.9 -999.9 -9.9 -9.999 -99.9 -99.99 -9.99
2019/07/18 10:18 EDT    2.31 -99.99 -999 -999 -999 -99.9 -99.9 -999.9 -9.9 -9.999 -99.9 -99.99 -9.99
2019/07/18 10:24 EDT    2.32 -99.99 -999 -999 -999 -99.9 -99.9 -999.9 -9.9 -9.999 -99.9 -99.99 -9.99
2019/07/18 10:30 EDT    2.34   2.51 -999 -999 -999 -99.9  84.0 1013.8 15.9  1.009 -99.9 -99.99 -9.99
2019/07/18 10:36 EDT    2.35   2.54 -999 -999 -999 -99.9  83.8 1013.8 15.9  1.009 -99.9 -99.99 -9.99
2019/07/18 10:42 EDT    2.36   2.56 -999 -999 -999 -99.9  83.8 1013.8 15.8  1.009 -99.9 -99.99 -9.99
2019/07/18 10:48 EDT    2.36   2.57 -999 -999 -999 -99.9  83.8 1013.8 15.8  1.009 -99.9 -99.99 -9.99
2019/07/18 10:54 EDT    2.37   2.57 -999 -999 -999 -99.9  83.8 1013.7 15.8  1.009 -99.9 -99.99 -9.99
2019/07/18 11:00 EDT    2.36   2.57 -999 -999 -999 -99.9  83.8 1013.7 15.7  1.009 -99.9 -99.99 -9.99
2019/07/18 11:06 EDT    2.36   2.59 -999 -999 -999 -99.9  83.8 1013.8 15.7  1.009 -99.9 -99.99 -9.99
2019/07/18 11:12 EDT    2.36   2.56 -999 -999 -999 -99.9  83.8 1013.8 15.8  1.009 -99.9 -99.99 -9.99
2019/07/18 11:18 EDT    2.35   2.60 -999 -999 -999 -99.9  83.8 1013.8 15.7  1.009 -99.9 -99.99 -9.99
2019/07/18 11:24 EDT    2.33   2.60 -999 -999 -999 -99.9  83.8 1013.6 15.7  1.009 -99.9 -99.99 -9.99
2019/07/18 11:30 EDT    2.32   2.60 -999 -999 -999 -99.9  83.8 1013.6 15.7  1.009 -99.9 -99.99 -9.99
2019/07/18 11:36 EDT    2.30   2.59 -999 -999 -999 -99.9  83.8 1013.5 15.8  1.009 -99.9 -99.99 -9.99
2019/07/18 11:42 EDT    2.28   2.58 -999 -999 -999 -99.9  84.0 1013.4 15.8  1.009 -99.9 -99.99 -9.99
2019/07/18 11:48 EDT    2.26   2.56 -999 -999 -999 -99.9  84.2 1013.3 15.7  1.009 -99.9 -99.99 -9.99
2019/07/18 11:54 EDT    2.23   2.53 -999 -999 -999 -99.9  84.0 1013.3 15.7  1.009 -99.9 -99.99 -9.99
2019/07/18 12:00 EDT    2.20   2.54 -999 -999 -999 -99.9  84.0 1013.3 15.7  1.009 -99.9 -99.99 -9.99
2019/07/18 12:06 EDT    2.17   2.47 -999 -999 -999 -99.9  83.8 1013.3 15.7  1.009 -99.9 -99.99 -9.99
2019/07/18 12:12 EDT    2.14   2.44 -999 -999 -999 -99.9 -99.9 -999.9 -9.9 -9.999 -99.9 -99.99 -9.99
2019/07/18 12:18 EDT    2.11   2.41 -999 -999 -999 -99.9  84.0 1013.2 15.7  1.009 -99.9 -99.99 -9.99
2019/07/18 12:24 EDT    2.07   2.38 -999 -999 -999 -99.9  83.8 1013.2 15.7  1.009 -99.9 -99.99 -9.99
2019/07/18 12:30 EDT    2.03   2.33 -999 -999 -999 -99.9  84.0 1013.2 15.7  1.009 -99.9 -99.99 -9.99
2019/07/18 12:36 EDT    1.99   2.30 -999 -999 -999 -99.9  84.0 1013.1 15.7  1.009 -99.9 -99.99 -9.99
2019/07/18 12:42 EDT    1.94   2.23 -999 -999 -999 -99.9  84.0 1013.0 15.7  1.009 -99.9 -99.99 -9.99
2019/07/18 12:48 EDT    1.90   2.19 -999 -999 -999 -99.9  83.8 1013.0 15.7  1.009 -99.9 -99.99 -9.99
2019/07/18 12:54 EDT    1.85   2.12 -999 -999 -999 -99.9  83.8 1012.9 15.7  1.009 -99.9 -99.99 -9.99
2019/07/18 13:00 EDT    1.80   2.08 -999 -999 -999 -99.9  83.8 1012.8 15.6  1.009 -99.9 -99.99 -9.99
2019/07/18 13:06 EDT    1.75   2.04 -999 -999 -999 -99.9  83.8 1012.7 15.7  1.009 -99.9 -99.99 -9.99
2019/07/18 13:12 EDT    1.70   1.99 -999 -999 -999 -99.9  83.8 1012.7 15.7  1.009 -99.9 -99.99 -9.99
2019/07/18 13:18 EDT    1.65   1.93 -999 -999 -999 -99.9  84.0 1012.7 15.7  1.009 -99.9 -99.99 -9.99
2019/07/18 13:24 EDT    1.59   1.88 -999 -999 -999 -99.9  84.0 1012.7 15.7  1.009 -99.9 -99.99 -9.99
2019/07/18 13:30 EDT    1.54   1.82 -999 -999 -999 -99.9  84.0 1012.7 15.7  1.009 -99.9 -99.99 -9.99
2019/07/18 13:36 EDT    1.48   1.77 -999 -999 -999 -99.9  84.2 1012.6 15.7  1.009 -99.9 -99.99 -9.99
2019/07/18 13:42 EDT    1.43   1.71 -999 -999 -999 -99.9  84.2 1012.6 15.7  1.009 -99.9 -99.99 -9.99
2019/07/18 13:48 EDT    1.37   1.67 -999 -999 -999 -99.9  84.2 1012.6 15.7  1.009 -99.9 -99.99 -9.99
2019/07/18 13:54 EDT    1.31   1.62 -999 -999 -999 -99.9  84.2 1012.6 15.7  1.009 -99.9 -99.99 -9.99
2019/07/18 14:00 EDT    1.26   1.57 -999 -999 -999 -99.9  84.2 1012.6 15.7  1.009 -99.9 -99.99 -9.99
2019/07/18 14:06 EDT    1.20   1.52 -999 -999 -999 -99.9  84.2 1012.6 15.7  1.009 -99.9 -99.99 -9.99
2019/07/18 14:12 EDT    1.14   1.46 -999 -999 -999 -99.9  84.2 1012.6 15.7  1.009 -99.9 -99.99 -9.99
2019/07/18 14:18 EDT    1.09   1.40 -999 -999 -999 -99.9  84.2 1012.6 15.7  1.009 -99.9 -99.99 -9.99
2019/07/18 14:24 EDT    1.03   1.35 -999 -999 -999 -99.9 -99.9 1012.5 -9.9 -9.999 -99.9 -99.99 -9.99
2019/07/18 14:30 EDT    0.97   1.29 -999 -999 -999 -99.9  84.2 1012.5 15.7  1.009 -99.9 -99.99 -9.99
2019/07/18 14:36 EDT    0.92   1.23 -999 -999 -999 -99.9  84.2 1012.5 15.7  1.009 -99.9 -99.99 -9.99
2019/07/18 14:42 EDT    0.86   1.18 -999 -999 -999 -99.9  84.2 1012.5 15.7  1.009 -99.9 -99.99 -9.99
2019/07/18 14:48 EDT    0.81   1.13 -999 -999 -999 -99.9  84.4 1012.4 15.7  1.008 -99.9 -99.99 -9.99
2019/07/18 14:54 EDT    0.76   1.10 -999 -999 -999 -99.9  84.4 1012.3 15.6  1.008 -99.9 -99.99 -9.99
2019/07/18 15:00 EDT    0.71   1.04 -999 -999 -999 -99.9  84.4 1012.3 15.6  1.008 -99.9 -99.99 -9.99
2019/07/18 15:06 EDT    0.66   0.99 -999 -999 -999 -99.9  84.2 1012.3 15.7  1.009 -99.9 -99.99 -9.99
2019/07/18 15:12 EDT    0.61   0.94 -999 -999 -999 -99.9  84.4 1012.3 15.7  1.008 -99.9 -99.99 -9.99
2019/07/18 15:18 EDT    0.57   0.88 -999 -999 -999 -99.9  84.2 1012.3 15.7  1.009 -99.9 -99.99 -9.99
2019/07/18 15:24 EDT    0.52   0.84 -999 -999 -999 -99.9  84.2 1012.3 15.7  1.009 -99.9 -99.99 -9.99
2019/07/18 15:30 EDT    0.48   0.81 -999 -999 -999 -99.9  84.2 1012.2 15.7  1.009 -99.9 -99.99 -9.99
2019/07/18 15:36 EDT    0.44   0.77 -999 -999 -999 -99.9  84.2 1012.2 15.7  1.009 -99.9 -99.99 -9.99
2019/07/18 15:42 EDT    0.40   0.73 -999 -999 -999 -99.9 -99.9 -999.9 -9.9 -9.999 -99.9 -99.99 -9.99
2019/07/18 15:48 EDT    0.37   0.70 -999 -999 -999 -99.9  84.2 1012.1 15.7  1.009 -99.9 -99.99 -9.99
2019/07/18 15:54 EDT    0.33   0.68 -999 -999 -999 -99.9  84.2 1012.0 15.7  1.009 -99.9 -99.99 -9.99
2019/07/18 16:00 EDT    0.30   0.66 -999 -999 -999 -99.9  84.4 1011.9 15.7  1.009 -99.9 -99.99 -9.99
2019/07/18 16:06 EDT    0.27   0.64 -999 -999 -999 -99.9  84.4 1011.9 15.7  1.008 -99.9 -99.99 -9.99
2019/07/18 16:12 EDT    0.25   0.62 -999 -999 -999 -99.9  84.7 1011.8 15.6  1.008 -99.9 -99.99 -9.99
2019/07/18 16:18 EDT    0.23   0.61 -999 -999 -999 -99.9  84.9 1011.8 15.6  1.008 -99.9 -99.99 -9.99
2019/07/18 16:24 EDT    0.21   0.60 -999 -999 -999 -99.9  84.7 1011.7 15.7  1.008 -99.9 -99.99 -9.99
2019/07/18 16:30 EDT    0.19   0.55 -999 -999 -999 -99.9  84.7 1011.6 15.6  1.008 -99.9 -99.99 -9.99
2019/07/18 16:36 EDT    0.18   0.57 -999 -999 -999 -99.9  84.7 1011.5 15.6  1.008 -99.9 -99.99 -9.99
2019/07/18 16:42 EDT    0.17   0.48 -999 -999 -999 -99.9  84.7 1011.5 15.7  1.008 -99.9 -99.99 -9.99
2019/07/18 16:48 EDT    0.16   0.54 -999 -999 -999 -99.9 -99.9 -999.9 -9.9 -9.999 -99.9 -99.99 -9.99
2019/07/18 16:54 EDT    0.16   0.51 -999 -999 -999 -99.9  84.4 1011.4 15.7  1.009 -99.9 -99.99 -9.99
2019/07/18 17:00 EDT    0.16   0.52 -999 -999 -999 -99.9  84.6 1011.4 15.7  1.008 -99.9 -99.99 -9.99
2019/07/18 17:06 EDT    0.16   0.49 -999 -999 -999 -99.9  84.4 1011.4 15.7  1.008 -99.9 -99.99 -9.99
2019/07/18 17:12 EDT    0.16   0.49 -999 -999 -999 -99.9  84.4 1011.3 15.7  1.008 -99.9 -99.99 -9.99
2019/07/18 17:18 EDT    0.17   0.49 -999 -999 -999 -99.9  84.4 1011.4 15.7  1.009 -99.9 -99.99 -9.99
2019/07/18 17:24 EDT    0.19   0.49 -999 -999 -999 -99.9  84.4 1011.4 15.7  1.008 -99.9 -99.99 -9.99
2019/07/18 17:30 EDT    0.20   0.50 -999 -999 -999 -99.9  84.4 1011.3 15.6  1.008 -99.9 -99.99 -9.99
2019/07/18 17:36 EDT    0.22   0.52 -999 -999 -999 -99.9  84.4 1011.3 15.6  1.008 -99.9 -99.99 -9.99
2019/07/18 17:42 EDT    0.24   0.53 -999 -999 -999 -99.9  84.4 1011.3 15.7  1.008 -99.9 -99.99 -9.99
2019/07/18 17:48 EDT    0.27   0.55 -999 -999 -999 -99.9  84.4 1011.4 15.7  1.008 -99.9 -99.99 -9.99
2019/07/18 17:54 EDT    0.29   0.55 -999 -999 -999 -99.9  84.2 1011.4 15.7  1.009 -99.9 -99.99 -9.99
2019/07/18 18:00 EDT    0.32   0.59 -999 -999 -999 -99.9  84.4 1011.4 15.6  1.008 -99.9 -99.99 -9.99
2019/07/18 18:06 EDT    0.36   0.62 -999 -999 -999 -99.9  84.4 1011.3 15.6  1.008 -99.9 -99.99 -9.99
2019/07/18 18:12 EDT    0.39   0.66 -999 -999 -999 -99.9  84.4 1011.2 15.6  1.008 -99.9 -99.99 -9.99
2019/07/18 18:18 EDT    0.43   0.70 -999 -999 -999 -99.9  84.4 1011.2 15.6  1.008 -99.9 -99.99 -9.99
2019/07/18 18:24 EDT    0.47   0.75 -999 -999 -999 -99.9  84.4 1011.2 15.6  1.008 -99.9 -99.99 -9.99
2019/07/18 18:30 EDT    0.52   0.80 -999 -999 -999 -99.9  84.4 1011.3 15.6  1.008 -99.9 -99.99 -9.99
2019/07/18 18:36 EDT    0.56   0.86 -999 -999 -999 -99.9  84.4 1011.5 15.6  1.008 -99.9 -99.99 -9.99
2019/07/18 18:42 EDT    0.61   0.90 -999 -999 -999 -99.9  84.4 1011.5 15.6  1.008 -99.9 -99.99 -9.99
2019/07/18 18:48 EDT    0.66   0.95 -999 -999 -999 -99.9  84.6 1011.5 15.6  1.008 -99.9 -99.99 -9.99
2019/07/18 18:54 EDT    0.71   1.00 -999 -999 -999 -99.9  84.6 1011.5 15.6  1.008 -99.9 -99.99 -9.99
2019/07/18 19:00 EDT    0.77   1.05 -999 -999 -999 -99.9  84.4 1011.4 15.7  1.008 -99.9 -99.99 -9.99
2019/07/18 19:06 EDT    0.82   1.12 -999 -999 -999 -99.9 -99.9 1011.4 -9.9 -9.999 -99.9 -99.99 -9.99
2019/07/18 19:12 EDT    0.88   1.17 -999 -999 -999 -99.9 -99.9 1011.5 -9.9 -9.999 -99.9 -99.99 -9.99
2019/07/18 19:18 EDT    0.94   1.23 -999 -999 -999 -99.9 -99.9 1011.5 -9.9 -9.999 -99.9 -99.99 -9.99
2019/07/18 19:24 EDT    1.00   1.29 -999 -999 -999 -99.9 -99.9 1011.5 -9.9 -9.999 -99.9 -99.99 -9.99
2019/07/18 19:30 EDT    1.06   1.34 -999 -999 -999 -99.9 -99.9 1011.6 -9.9 -9.999 -99.9 -99.99 -9.99
2019/07/18 19:36 EDT    1.13   1.40 -999 -999 -999 -99.9  85.1 1011.7 15.6  1.008 -99.9 -99.99 -9.99
2019/07/18 19:42 EDT    1.19   1.45 -999 -999 -999 -99.9  85.1 1011.7 15.6  1.008 -99.9 -99.99 -9.99
2019/07/18 19:48 EDT    1.25   1.53 -999 -999 -999 -99.9  85.1 1011.8 15.6  1.008 -99.9 -99.99 -9.99
2019/07/18 19:54 EDT    1.32   1.59 -999 -999 -999 -99.9  84.9 1012.0 15.6  1.008 -99.9 -99.99 -9.99
2019/07/18 20:00 EDT    1.38   1.65 -999 -999 -999 -99.9  84.9 1012.0 15.6  1.008 -99.9 -99.99 -9.99
2019/07/18 20:06 EDT    1.45   1.72 -999 -999 -999 -99.9  84.7 1012.0 15.6  1.008 -99.9 -99.99 -9.99
2019/07/18 20:12 EDT    1.51   1.77 -999 -999 -999 -99.9  84.7 1011.9 15.6  1.008 -99.9 -99.99 -9.99
2019/07/18 20:18 EDT    1.58   1.85 -999 -999 -999 -99.9  84.6 1011.9 15.6  1.008 -99.9 -99.99 -9.99
2019/07/18 20:24 EDT    1.64   1.92 -999 -999 -999 -99.9  84.6 1011.7 15.6  1.008 -99.9 -99.99 -9.99
2019/07/18 20:30 EDT    1.70   1.97 -999 -999 -999 -99.9  84.9 1011.7 15.5  1.008 -99.9 -99.99 -9.99
2019/07/18 20:36 EDT    1.77   2.02 -999 -999 -999 -99.9  84.7 1011.6 15.6  1.008 -99.9 -99.99 -9.99
2019/07/18 20:42 EDT    1.83   2.08 -999 -999 -999 -99.9  84.7 1011.7 15.6  1.008 -99.9 -99.99 -9.99
2019/07/18 20:48 EDT    1.89   2.13 -999 -999 -999 -99.9  84.7 1011.7 15.5  1.008 -99.9 -99.99 -9.99
2019/07/18 20:54 EDT    1.95   2.17 -999 -999 -999 -99.9  84.6 1011.7 15.6  1.008 -99.9 -99.99 -9.99
2019/07/18 21:00 EDT    2.01   2.20 -999 -999 -999 -99.9  84.7 1011.8 15.5  1.008 -99.9 -99.99 -9.99
2019/07/18 21:06 EDT    2.07   2.22 -999 -999 -999 -99.9  84.7 1012.1 15.5  1.008 -99.9 -99.99 -9.99
2019/07/18 21:12 EDT    2.12   2.27 -999 -999 -999 -99.9  84.7 1012.3 15.5  1.008 -99.9 -99.99 -9.99
2019/07/18 21:18 EDT    2.18   2.30 -999 -999 -999 -99.9  84.7 1012.4 15.5  1.008 -99.9 -99.99 -9.99
2019/07/18 21:24 EDT    2.23   2.36 -999 -999 -999 -99.9  84.7 1012.4 15.5  1.008 -99.9 -99.99 -9.99
2019/07/18 21:30 EDT    2.28   2.44 -999 -999 -999 -99.9  84.7 1012.5 15.5  1.008 -99.9 -99.99 -9.99
2019/07/18 21:36 EDT    2.33   2.49 -999 -999 -999 -99.9  84.7 1012.6 15.5  1.008 -99.9 -99.99 -9.99
2019/07/18 21:42 EDT    2.38   2.56 -999 -999 -999 -99.9  84.7 1012.6 15.5  1.008 -99.9 -99.99 -9.99
2019/07/18 21:48 EDT    2.42   2.63 -999 -999 -999 -99.9  84.7 1012.8 15.5  1.008 -99.9 -99.99 -9.99
2019/07/18 21:54 EDT    2.46   2.64 -999 -999 -999 -99.9  84.7 1012.9 15.5  1.008 -99.9 -99.99 -9.99
2019/07/18 22:00 EDT    2.50   2.68 -999 -999 -999 -99.9  84.7 1013.0 15.5  1.008 -99.9 -99.99 -9.99
2019/07/18 22:06 EDT    2.54   2.72 -999 -999 -999 -99.9  84.6 1013.1 15.5  1.008 -99.9 -99.99 -9.99
2019/07/18 22:12 EDT    2.58   2.78 -999 -999 -999 -99.9  84.7 1013.2 15.5  1.008 -99.9 -99.99 -9.99
2019/07/18 22:18 EDT    2.61   2.81 -999 -999 -999 -99.9  84.7 1013.7 15.5  1.008 -99.9 -99.99 -9.99
2019/07/18 22:24 EDT    2.64   2.84 -999 -999 -999 -99.9  84.7 1013.7 15.5  1.008 -99.9 -99.99 -9.99
2019/07/18 22:30 EDT    2.66   2.88 -999 -999 -999 -99.9  84.7 1013.6 15.5  1.008 -99.9 -99.99 -9.99
2019/07/18 22:36 EDT    2.68   2.93 -999 -999 -999 -99.9  84.7 1013.8 15.5  1.008 -99.9 -99.99 -9.99
2019/07/18 22:42 EDT    2.70   2.95 -999 -999 -999 -99.9  84.7 1013.8 15.5  1.008 -99.9 -99.99 -9.99
2019/07/18 22:48 EDT    2.72   2.97 -999 -999 -999 -99.9  84.7 1013.8 15.5  1.008 -99.9 -99.99 -9.99
2019/07/18 22:54 EDT    2.74   3.00 -999 -999 -999 -99.9  84.6 1014.0 15.5  1.008 -99.9 -99.99 -9.99
2019/07/18 23:00 EDT    2.75   3.03 -999 -999 -999 -99.9  84.6 1013.9 15.5  1.008 -99.9 -99.99 -9.99
2019/07/18 23:06 EDT    2.75   3.07 -999 -999 -999 -99.9  84.6 1013.8 15.5  1.008 -99.9 -99.99 -9.99
2019/07/18 23:12 EDT    2.76   3.11 -999 -999 -999 -99.9  84.6 1013.8 15.5  1.008 -99.9 -99.99 -9.99
2019/07/18 23:18 EDT    2.76   3.15 -999 -999 -999 -99.9  84.6 1013.6 15.4  1.008 -99.9 -99.99 -9.99
2019/07/18 23:24 EDT    2.76   3.15 -999 -999 -999 -99.9  84.6 1013.7 15.5  1.008 -99.9 -99.99 -9.99
2019/07/18 23:30 EDT    2.76   3.12 -999 -999 -999 -99.9  84.6 1013.6 15.5  1.008 -99.9 -99.99 -9.99
2019/07/18 23:36 EDT    2.75   3.13 -999 -999 -999 -99.9  84.7 1013.6 15.5  1.008 -99.9 -99.99 -9.99
2019/07/18 23:42 EDT    2.74   3.12 -999 -999 -999 -99.9  84.6 1013.8 15.5  1.008 -99.9 -99.99 -9.99
2019/07/18 23:48 EDT    2.72   3.12 -999 -999 -999 -99.9  84.6 1013.9 15.5  1.008 -99.9 -99.99 -9.99
2019/07/18 23:54 EDT    2.71   3.08 -999 -999 -999 -99.9  84.6 1013.8 15.5  1.008 -99.9 -99.99 -9.99
2019/07/19 00:00 EDT    2.69   3.05 -999 -999 -999 -99.9  84.6 1013.8 15.5  1.008 -99.9 -99.99 -9.99
2019/07/19 00:06 EDT    2.66   3.02 -999 -999 -999 -99.9  84.4 1013.8 15.5  1.008 -99.9 -99.99 -9.99
2019/07/19 00:12 EDT    2.64   2.97 -999 -999 -999 -99.9  83.7 1013.9 15.7  1.009 -99.9 -99.99 -9.99
2019/07/19 00:18 EDT    2.61   2.86 -999 -999 -999 -99.9  83.8 1013.9 15.7  1.009 -99.9 -99.99 -9.99
2019/07/19 00:24 EDT    2.58   2.84 -999 -999 -999 -99.9  84.0 1013.9 15.6  1.009 -99.9 -99.99 -9.99
2019/07/19 00:30 EDT    2.54   2.79 -999 -999 -999 -99.9  83.8 1013.8 15.7  1.009 -99.9 -99.99 -9.99
2019/07/19 00:36 EDT    2.50   2.75 -999 -999 -999 -99.9  84.2 1013.7 15.6  1.008 -99.9 -99.99 -9.99
2019/07/19 00:42 EDT    2.47   2.69 -999 -999 -999 -99.9  84.4 1013.5 15.5  1.008 -99.9 -99.99 -9.99
2019/07/19 00:48 EDT    2.42   2.64 -999 -999 -999 -99.9  84.4 1013.4 15.5  1.008 -99.9 -99.99 -9.99
2019/07/19 00:54 EDT    2.38   2.59 -999 -999 -999 -99.9  84.4 1013.2 15.5  1.008 -99.9 -99.99 -9.99
2019/07/19 01:00 EDT    2.33   2.54 -999 -999 -999 -99.9  84.4 1013.1 15.5  1.008 -99.9 -99.99 -9.99
2019/07/19 01:06 EDT    2.28   2.48 -999 -999 -999 -99.9  84.4 1013.0 15.5  1.008 -99.9 -99.99 -9.99
2019/07/19 01:12 EDT    2.23   2.44 -999 -999 -999 -99.9  84.4 1013.0 15.5  1.008 -99.9 -99.99 -9.99
2019/07/19 01:18 EDT    2.18   2.38 -999 -999 -999 -99.9  84.4 1012.9 15.5  1.008 -99.9 -99.99 -9.99
2019/07/19 01:24 EDT    2.12   2.31 -999 -999 -999 -99.9  84.4 1013.0 15.5  1.008 -99.9 -99.99 -9.99
2019/07/19 01:30 EDT    2.07   2.25 -999 -999 -999 -99.9  84.4 1013.2 15.5  1.008 -99.9 -99.99 -9.99
2019/07/19 01:36 EDT    2.01   2.19 -999 -999 -999 -99.9  84.4 1013.1 15.5  1.008 -99.9 -99.99 -9.99
2019/07/19 01:42 EDT    1.95   2.13 -999 -999 -999 -99.9  84.2 1013.2 15.6  1.008 -99.9 -99.99 -9.99
2019/07/19 01:48 EDT    1.89   2.09 -999 -999 -999 -99.9  84.2 1013.3 15.6  1.008 -99.9 -99.99 -9.99
2019/07/19 01:54 EDT    1.83   2.03 -999 -999 -999 -99.9  84.2 1013.3 15.6  1.008 -99.9 -99.99 -9.99
2019/07/19 02:00 EDT    1.76   1.97 -999 -999 -999 -99.9  84.0 1013.4 15.7  1.009 -99.9 -99.99 -9.99
2019/07/19 02:06 EDT    1.70   1.92 -999 -999 -999 -99.9  84.0 1013.4 15.7  1.009 -99.9 -99.99 -9.99
2019/07/19 02:12 EDT    1.64   1.86 -999 -999 -999 -99.9  84.0 1013.4 15.7  1.009 -99.9 -99.99 -9.99
2019/07/19 02:18 EDT    1.57   1.80 -999 -999 -999 -99.9  83.8 1013.4 15.8  1.009 -99.9 -99.99 -9.99
2019/07/19 02:24 EDT    1.51   1.74 -999 -999 -999 -99.9  84.0 1013.4 15.7  1.009 -99.9 -99.99 -9.99
2019/07/19 02:30 EDT    1.44   1.67 -999 -999 -999 -99.9  84.0 1013.3 15.7  1.009 -99.9 -99.99 -9.99
2019/07/19 02:36 EDT    1.37   1.61 -999 -999 -999 -99.9  84.2 1013.2 15.7  1.009 -99.9 -99.99 -9.99
2019/07/19 02:42 EDT    1.31   1.54 -999 -999 -999 -99.9  84.2 1013.2 15.7  1.009 -99.9 -99.99 -9.99
2019/07/19 02:48 EDT    1.24   1.48 -999 -999 -999 -99.9  84.4 1013.2 15.6  1.008 -99.9 -99.99 -9.99
2019/07/19 02:54 EDT    1.18   1.41 -999 -999 -999 -99.9  84.4 1013.2 15.5  1.008 -99.9 -99.99 -9.99
2019/07/19 03:00 EDT    1.11   1.35 -999 -999 -999 -99.9  84.4 1013.2 15.5  1.008 -99.9 -99.99 -9.99
2019/07/19 03:06 EDT    1.05   1.29 -999 -999 -999 -99.9  84.2 1013.2 15.5  1.008 -99.9 -99.99 -9.99
2019/07/19 03:12 EDT    0.99   1.20 -999 -999 -999 -99.9  84.2 1013.2 15.6  1.008 -99.9 -99.99 -9.99
2019/07/19 03:18 EDT    0.93   1.16 -999 -999 -999 -99.9  84.2 1013.3 15.6  1.008 -99.9 -99.99 -9.99
2019/07/19 03:24 EDT    0.87   1.11 -999 -999 -999 -99.9  84.2 1013.2 15.6  1.008 -99.9 -99.99 -9.99
2019/07/19 03:30 EDT    0.81   1.05 -999 -999 -999 -99.9  84.0 1013.2 15.6  1.009 -99.9 -99.99 -9.99
2019/07/19 03:36 EDT    0.75   1.00 -999 -999 -999 -99.9  84.2 1013.0 15.6  1.008 -99.9 -99.99 -9.99
2019/07/19 03:42 EDT    0.69   0.95 -999 -999 -999 -99.9  84.2 1013.1 15.6  1.008 -99.9 -99.99 -9.99
2019/07/19 03:48 EDT    0.64   0.90 -999 -999 -999 -99.9  84.0 1013.1 15.6  1.008 -99.9 -99.99 -9.99
2019/07/19 03:54 EDT    0.59   0.83 -999 -999 -999 -99.9  84.2 1013.1 15.5  1.008 -99.9 -99.99 -9.99
2019/07/19 04:00 EDT    0.54   0.79 -999 -999 -999 -99.9  84.2 1013.0 15.6  1.008 -99.9 -99.99 -9.99
2019/07/19 04:06 EDT    0.49   0.72 -999 -999 -999 -99.9  84.0 1013.1 15.6  1.008 -99.9 -99.99 -9.99
2019/07/19 04:12 EDT    0.45   0.70 -999 -999 -999 -99.9  84.0 1013.1 15.6  1.009 -99.9 -99.99 -9.99
2019/07/19 04:18 EDT    0.41   0.65 -999 -999 -999 -99.9  84.0 1013.1 15.6  1.009 -99.9 -99.99 -9.99
2019/07/19 04:24 EDT    0.37   0.62 -999 -999 -999 -99.9  84.0 1013.2 15.6  1.009 -99.9 -99.99 -9.99
2019/07/19 04:30 EDT    0.33   0.58 -999 -999 -999 -99.9  84.0 1013.4 15.6  1.008 -99.9 -99.99 -9.99
2019/07/19 04:36 EDT    0.29   0.56 -999 -999 -999 -99.9  84.0 1013.4 15.6  1.008 -99.9 -99.99 -9.99
2019/07/19 04:42 EDT    0.26   0.54 -999 -999 -999 -99.9  84.0 1013.4 15.6  1.009 -99.9 -99.99 -9.99
2019/07/19 04:48 EDT    0.24   0.53 -999 -999 -999 -99.9  84.0 1013.3 15.6  1.009 -99.9 -99.99 -9.99
2019/07/19 04:54 EDT    0.21   0.51 -999 -999 -999 -99.9  84.0 1013.3 15.6  1.009 -99.9 -99.99 -9.99
2019/07/19 05:00 EDT    0.19   0.51 -999 -999 -999 -99.9  84.0 1013.4 15.7  1.009 -99.9 -99.99 -9.99
2019/07/19 05:06 EDT    0.17   0.49 -999 -999 -999 -99.9  83.8 1013.6 15.7  1.009 -99.9 -99.99 -9.99
2019/07/19 05:12 EDT    0.16   0.49 -999 -999 -999 -99.9  84.0 1013.7 15.6  1.009 -99.9 -99.99 -9.99
2019/07/19 05:18 EDT    0.14   0.48 -999 -999 -999 -99.9  84.0 1013.7 15.6  1.009 -99.9 -99.99 -9.99
2019/07/19 05:24 EDT    0.13   0.48 -999 -999 -999 -99.9  83.8 1013.8 15.8  1.009 -99.9 -99.99 -9.99
2019/07/19 05:30 EDT    0.13   0.48 -999 -999 -999 -99.9  83.8 1013.8 16.0  1.009 -99.9 -99.99 -9.99
2019/07/19 05:36 EDT    0.13   0.49 -999 -999 -999 -99.9  84.0 1013.7 15.9  1.009 -99.9 -99.99 -9.99
2019/07/19 05:42 EDT    0.13   0.49 -999 -999 -999 -99.9  84.0 1013.8 15.9  1.009 -99.9 -99.99 -9.99
2019/07/19 05:48 EDT    0.13   0.49 -999 -999 -999 -99.9  84.0 1013.7 16.0  1.009 -99.9 -99.99 -9.99
2019/07/19 05:54 EDT    0.14   0.48 -999 -999 -999 -99.9  83.8 1013.7 16.0  1.009 -99.9 -99.99 -9.99
2019/07/19 06:00 EDT    0.15   0.51 -999 -999 -999 -99.9  83.8 1013.8 16.0  1.009 -99.9 -99.99 -9.99
2019/07/19 06:06 EDT    0.17   0.54 -999 -999 -999 -99.9  83.8 1013.7 16.0  1.009 -99.9 -99.99 -9.99
2019/07/19 06:12 EDT    0.19   0.57 -999 -999 -999 -99.9  83.8 1013.7 16.0  1.009 -99.9 -99.99 -9.99
2019/07/19 06:18 EDT    0.21   0.59 -999 -999 -999 -99.9  83.8 1013.8 16.0  1.009 -99.9 -99.99 -9.99
2019/07/19 06:24 EDT    0.23   0.60 -999 -999 -999 -99.9  84.0 1013.7 16.0  1.009 -99.9 -99.99 -9.99
2019/07/19 06:30 EDT    0.26   0.64 -999 -999 -999 -99.9  83.5 1013.7 16.2  1.009 -99.9 -99.99 -9.99
2019/07/19 06:36 EDT    0.29   0.67 -999 -999 -999 -99.9  83.5 1013.8 16.2  1.009 -99.9 -99.99 -9.99
2019/07/19 06:42 EDT    0.32   0.71 -999 -999 -999 -99.9  83.5 1013.9 16.2  1.009 -99.9 -99.99 -9.99
2019/07/19 06:48 EDT    0.35   0.74 -999 -999 -999 -99.9  83.5 1013.8 16.2  1.009 -99.9 -99.99 -9.99
2019/07/19 06:54 EDT    0.39   0.78 -999 -999 -999 -99.9  83.5 1013.9 16.2  1.009 -99.9 -99.99 -9.99
2019/07/19 07:00 EDT    0.43   0.82 -999 -999 -999 -99.9  83.7 1013.9 16.2  1.009 -99.9 -99.99 -9.99
2019/07/19 07:06 EDT    0.48   0.85 -999 -999 -999 -99.9  83.7 1013.9 16.1  1.009 -99.9 -99.99 -9.99
2019/07/19 07:12 EDT    0.52   0.91 -999 -999 -999 -99.9  83.7 1014.0 16.1  1.009 -99.9 -99.99 -9.99
2019/07/19 07:18 EDT    0.57   0.96 -999 -999 -999 -99.9  83.8 1014.1 16.0  1.009 -99.9 -99.99 -9.99
2019/07/19 07:24 EDT    0.62   0.99 -999 -999 -999 -99.9  83.8 1014.1 16.0  1.009 -99.9 -99.99 -9.99
2019/07/19 07:30 EDT    0.67   1.04 -999 -999 -999 -99.9  83.8 1014.1 16.0  1.009 -99.9 -99.99 -9.99
2019/07/19 07:36 EDT    0.72   1.09 -999 -999 -999 -99.9  83.8 1014.1 16.0  1.009 -99.9 -99.99 -9.99
2019/07/19 07:42 EDT    0.77   1.15 -999 -999 -999 -99.9  83.7 1014.2 16.1  1.009 -99.9 -99.99 -9.99
2019/07/19 07:48 EDT    0.83   1.21 -999 -999 -999 -99.9  83.8 1014.2 16.0  1.009 -99.9 -99.99 -9.99
2019/07/19 07:54 EDT    0.88   1.26 -999 -999 -999 -99.9  83.8 1014.3 16.0  1.009 -99.9 -99.99 -9.99
2019/07/19 08:00 EDT    0.94   1.32 -999 -999 -999 -99.9  83.7 1014.6 16.1  1.009 -99.9 -99.99 -9.99
2019/07/19 08:06 EDT    1.00   1.36 -999 -999 -999 -99.9  83.7 1014.6 16.0  1.009 -99.9 -99.99 -9.99
2019/07/19 08:12 EDT    1.06   1.41 -999 -999 -999 -99.9  83.7 1014.8 16.0  1.009 -99.9 -99.99 -9.99
2019/07/19 08:18 EDT    1.11   1.47 -999 -999 -999 -99.9  83.7 1014.8 16.0  1.009 -99.9 -99.99 -9.99
2019/07/19 08:24 EDT    1.17   1.52 -999 -999 -999 -99.9  83.7 1014.8 16.0  1.009 -99.9 -99.99 -9.99
2019/07/19 08:30 EDT    1.23   1.57 -999 -999 -999 -99.9  83.7 1014.8 16.0  1.009 -99.9 -99.99 -9.99
2019/07/19 08:36 EDT    1.29   1.62 -999 -999 -999 -99.9  83.8 1014.9 16.0  1.009 -99.9 -99.99 -9.99
2019/07/19 08:42 EDT    1.35   1.67 -999 -999 -999 -99.9  83.8 1014.9 16.0  1.009 -99.9 -99.99 -9.99
2019/07/19 08:48 EDT    1.41   1.73 -999 -999 -999 -99.9  83.8 1015.0 16.0  1.009 -99.9 -99.99 -9.99
2019/07/19 08:54 EDT    1.47   1.78 -999 -999 -999 -99.9  83.7 1015.0 16.0  1.009 -99.9 -99.99 -9.99
2019/07/19 09:00 EDT    1.53   1.85 -999 -999 -999 -99.9  83.7 1015.0 16.0  1.009 -99.9 -99.99 -9.99
2019/07/19 09:06 EDT    1.58   1.93 -999 -999 -999 -99.9  83.5 1014.9 16.0  1.009 -99.9 -99.99 -9.99
2019/07/19 09:12 EDT    1.64   1.98 -999 -999 -999 -99.9  83.5 1015.0 16.0  1.009 -99.9 -99.99 -9.99
2019/07/19 09:18 EDT    1.69   2.04 -999 -999 -999 -99.9  83.5 1015.0 16.0  1.009 -99.9 -99.99 -9.99
2019/07/19 09:24 EDT    1.74   2.09 -999 -999 -999 -99.9  83.5 1015.1 16.1  1.009 -99.9 -99.99 -9.99
2019/07/19 09:30 EDT    1.80   2.14 -999 -999 -999 -99.9  83.7 1015.1 16.1  1.009 -99.9 -99.99 -9.99
2019/07/19 09:36 EDT    1.85   2.19 -999 -999 -999 -99.9  83.5 1015.1 16.1  1.009 -99.9 -99.99 -9.99
2019/07/19 09:42 EDT    1.89   2.24 -999 -999 -999 -99.9  83.5 1015.1 16.1  1.009 -99.9 -99.99 -9.99
2019/07/19 09:48 EDT    1.94   2.29 -999 -999 -999 -99.9  83.5 1015.2 16.1  1.009 -99.9 -99.99 -9.99
2019/07/19 09:54 EDT    1.99   2.34 -999 -999 -999 -99.9 -99.9 -999.9 -9.9 -9.999 -99.9 -99.99 -9.99
2019/07/19 10:00 EDT    2.03   2.40 -999 -999 -999 -99.9  83.5 1015.3 16.0  1.009 -99.9 -99.99 -9.99
2019/07/19 10:06 EDT    2.07   2.43 -999 -999 -999 -99.9  83.5 1015.3 16.1  1.009 -99.9 -99.99 -9.99
2019/07/19 10:12 EDT    2.11   2.49 -999 -999 -999 -99.9  83.5 1015.3 16.0  1.009 -99.9 -99.99 -9.99
2019/07/19 10:18 EDT    2.14   2.52 -999 -999 -999 -99.9  83.5 1015.4 16.0  1.009 -99.9 -99.99 -9.99
2019/07/19 10:24 EDT    2.18   2.58 -999 -999 -999 -99.9  83.5 1015.4 16.0  1.009 -99.9 -99.99 -9.99
2019/07/19 10:30 EDT    2.21   2.61 -999 -999 -999 -99.9  83.5 1015.4 16.0  1.009 -99.9 -99.99 -9.99
2019/07/19 10:36 EDT    2.24   2.65 -999 -999 -999 -99.9  83.3 1015.5 16.1  1.009 -99.9 -99.99 -9.99
2019/07/19 10:42 EDT    2.26   2.67 -999 -999 -999 -99.9  83.3 1015.4 16.1  1.009 -99.9 -99.99 -9.99
2019/07/19 10:48 EDT    2.29   2.70 -999 -999 -999 -99.9  83.3 1015.4 16.1  1.009 -99.9 -99.99 -9.99
2019/07/19 10:54 EDT    2.31   2.73 -999 -999 -999 -99.9  83.5 1015.4 16.0  1.009 -99.9 -99.99 -9.99
2019/07/19 11:00 EDT    2.32   2.75 -999 -999 -999 -99.9  83.5 1015.4 16.0  1.009 -99.9 -99.99 -9.99
2019/07/19 11:06 EDT    2.34   2.76 -999 -999 -999 -99.9  83.5 1015.4 16.1  1.009 -99.9 -99.99 -9.99
2019/07/19 11:12 EDT    2.35   2.78 -999 -999 -999 -99.9  83.5 1015.4 16.0  1.009 -99.9 -99.99 -9.99
2019/07/19 11:18 EDT    2.36   2.80 -999 -999 -999 -99.9  83.5 1015.3 16.0  1.009 -99.9 -99.99 -9.99
2019/07/19 11:24 EDT    2.37   2.83 -999 -999 -999 -99.9  83.3 1015.4 16.0  1.009 -99.9 -99.99 -9.99
2019/07/19 11:30 EDT    2.37   2.83 -999 -999 -999 -99.9  83.5 1015.4 16.0  1.009 -99.9 -99.99 -9.99
2019/07/19 11:36 EDT    2.37   2.83 -999 -999 -999 -99.9  83.5 1015.4 16.0  1.009 -99.9 -99.99 -9.99
2019/07/19 11:42 EDT    2.37   2.85 -999 -999 -999 -99.9  83.5 1015.4 16.0  1.009 -99.9 -99.99 -9.99
2019/07/19 11:48 EDT    2.36   2.84 -999 -999 -999 -99.9  83.8 1015.3 15.9  1.009 -99.9 -99.99 -9.99
2019/07/19 11:54 EDT    2.36   2.83 -999 -999 -999 -99.9  83.8 1015.4 15.9  1.009 -99.9 -99.99 -9.99
2019/07/19 12:00 EDT    2.35   2.80 -999 -999 -999 -99.9  83.7 1015.4 16.0  1.009 -99.9 -99.99 -9.99
2019/07/19 12:06 EDT    2.33   2.80 -999 -999 -999 -99.9  83.5 1015.4 16.0  1.009 -99.9 -99.99 -9.99
2019/07/19 12:12 EDT    2.32   2.75 -999 -999 -999 -99.9  82.9 1015.5 16.2  1.009 -99.9 -99.99 -9.99
2019/07/19 12:18 EDT    2.30   2.74 -999 -999 -999 -99.9  82.9 1015.5 16.2  1.009 -99.9 -99.99 -9.99
2019/07/19 12:24 EDT    2.28   2.71 -999 -999 -999 -99.9  82.9 1015.5 16.2  1.009 -99.9 -99.99 -9.99
2019/07/19 12:30 EDT    2.25   2.68 -999 -999 -999 -99.9  82.9 1015.5 16.2  1.009 -99.9 -99.99 -9.99
2019/07/19 12:36 EDT    2.23   2.62 -999 -999 -999 -99.9  82.9 1015.5 16.2  1.009 -99.9 -99.99 -9.99
2019/07/19 12:42 EDT    2.20   2.63 -999 -999 -999 -99.9  83.1 1015.5 16.2  1.009 -99.9 -99.99 -9.99
2019/07/19 12:48 EDT    2.17   2.62 -999 -999 -999 -99.9  83.3 1015.5 16.1  1.009 -99.9 -99.99 -9.99
2019/07/19 12:54 EDT    2.14   2.59 -999 -999 -999 -99.9  83.1 1015.5 16.2  1.009 -99.9 -99.99 -9.99
2019/07/19 13:00 EDT    2.10   2.53 -999 -999 -999 -99.9  83.1 1015.5 16.2  1.009 -99.9 -99.99 -9.99
2019/07/19 13:06 EDT    2.06   2.53 -999 -999 -999 -99.9  82.9 1015.5 16.2  1.009 -99.9 -99.99 -9.99
2019/07/19 13:12 EDT    2.02   2.47 -999 -999 -999 -99.9  83.1 1015.4 16.2  1.009 -99.9 -99.99 -9.99
2019/07/19 13:18 EDT    1.98   2.47 -999 -999 -999 -99.9  82.9 1015.4 16.2  1.009 -99.9 -99.99 -9.99
2019/07/19 13:24 EDT    1.94   2.40 -999 -999 -999 -99.9  83.1 1015.3 16.2  1.009 -99.9 -99.99 -9.99
2019/07/19 13:30 EDT    1.89   2.35 -999 -999 -999 -99.9  83.3 1015.4 16.1  1.009 -99.9 -99.99 -9.99
2019/07/19 13:36 EDT    1.85   2.32 -999 -999 -999 -99.9  83.1 1015.3 16.2  1.009 -99.9 -99.99 -9.99
2019/07/19 13:42 EDT    1.80   2.26 -999 -999 -999 -99.9  82.9 1015.3 16.2  1.009 -99.9 -99.99 -9.99
2019/07/19 13:48 EDT    1.75   2.23 -999 -999 -999 -99.9  82.8 1015.2 16.3  1.009 -99.9 -99.99 -9.99
2019/07/19 13:54 EDT    1.70   2.18 -999 -999 -999 -99.9  82.8 1015.1 16.3  1.009 -99.9 -99.99 -9.99
2019/07/19 14:00 EDT    1.65   2.14 -999 -999 -999 -99.9  82.9 1015.1 16.3  1.009 -99.9 -99.99 -9.99
2019/07/19 14:06 EDT    1.60   2.09 -999 -999 -999 -99.9  83.1 1015.0 16.2  1.009 -99.9 -99.99 -9.99
2019/07/19 14:12 EDT    1.54   2.02 -999 -999 -999 -99.9  83.1 1015.0 16.2  1.009 -99.9 -99.99 -9.99
2019/07/19 14:18 EDT    1.49   1.98 -999 -999 -999 -99.9  83.1 1015.0 16.2  1.009 -99.9 -99.99 -9.99
2019/07/19 14:24 EDT    1.44   1.92 -999 -999 -999 -99.9  83.1 1014.9 16.2  1.009 -99.9 -99.99 -9.99
2019/07/19 14:30 EDT    1.38   1.87 -999 -999 -999 -99.9  82.9 1014.9 16.3  1.009 -99.9 -99.99 -9.99
2019/07/19 14:36 EDT    1.33   1.81 -999 -999 -999 -99.9  82.9 1014.8 16.3  1.009 -99.9 -99.99 -9.99
2019/07/19 14:42 EDT    1.27   1.77 -999 -999 -999 -99.9  82.9 1014.8 16.3  1.009 -99.9 -99.99 -9.99
2019/07/19 14:48 EDT    1.22   1.70 -999 -999 -999 -99.9  83.1 1014.7 16.2  1.009 -99.9 -99.99 -9.99
2019/07/19 14:54 EDT    1.16   1.65 -999 -999 -999 -99.9  82.9 1014.7 16.3  1.009 -99.9 -99.99 -9.99
2019/07/19 15:00 EDT    1.11   1.58 -999 -999 -999 -99.9  82.9 1014.7 16.3  1.009 -99.9 -99.99 -9.99
2019/07/19 15:06 EDT    1.05   1.52 -999 -999 -999 -99.9  82.9 1014.6 16.3  1.009 -99.9 -99.99 -9.99
2019/07/19 15:12 EDT    1.00   1.48 -999 -999 -999 -99.9  82.6 1014.5 16.4  1.009 -99.9 -99.99 -9.99
2019/07/19 15:18 EDT    0.95   1.43 -999 -999 -999 -99.9  82.8 1014.4 16.4  1.009 -99.9 -99.99 -9.99
2019/07/19 15:24 EDT    0.89   1.36 -999 -999 -999 -99.9  82.6 1014.4 16.4  1.009 -99.9 -99.99 -9.99
2019/07/19 15:30 EDT    0.84   1.29 -999 -999 -999 -99.9  82.0 1014.3 16.7  1.010 -99.9 -99.99 -9.99
2019/07/19 15:36 EDT    0.79   1.24 -999 -999 -999 -99.9  81.7 1014.1 16.8  1.010 -99.9 -99.99 -9.99
2019/07/19 15:42 EDT    0.74   1.19 -999 -999 -999 -99.9  81.9 1014.1 16.8  1.010 -99.9 -99.99 -9.99
2019/07/19 15:48 EDT    0.70   1.17 -999 -999 -999 -99.9  82.0 1014.2 16.7  1.010 -99.9 -99.99 -9.99
2019/07/19 15:54 EDT    0.65   1.12 -999 -999 -999 -99.9  82.2 1014.2 16.6  1.010 -99.9 -99.99 -9.99
2019/07/19 16:00 EDT    0.61   1.08 -999 -999 -999 -99.9  82.9 1014.2 16.5  1.009 -99.9 -99.99 -9.99
2019/07/19 16:06 EDT    0.57   1.01 -999 -999 -999 -99.9  82.8 1014.2 16.5  1.009 -99.9 -99.99 -9.99
2019/07/19 16:12 EDT    0.53   0.98 -999 -999 -999 -99.9  82.6 1014.1 16.5  1.009 -99.9 -99.99 -9.99
2019/07/19 16:18 EDT    0.49   0.94 -999 -999 -999 -99.9  82.8 1014.0 16.5  1.009 -99.9 -99.99 -9.99
2019/07/19 16:24 EDT    0.45   0.92 -999 -999 -999 -99.9  82.4 1013.9 16.6  1.009 -99.9 -99.99 -9.99
2019/07/19 16:30 EDT    0.42   0.85 -999 -999 -999 -99.9  82.9 1013.8 16.4  1.009 -99.9 -99.99 -9.99
2019/07/19 16:36 EDT    0.39   0.83 -999 -999 -999 -99.9  82.8 1013.7 16.4  1.009 -99.9 -99.99 -9.99
2019/07/19 16:42 EDT    0.36   0.81 -999 -999 -999 -99.9  83.1 1013.6 16.4  1.009 -99.9 -99.99 -9.99
2019/07/19 16:48 EDT    0.33   0.76 -999 -999 -999 -99.9  83.1 1013.5 16.4  1.009 -99.9 -99.99 -9.99
2019/07/19 16:54 EDT    0.31   0.77 -999 -999 -999 -99.9  83.5 1013.5 16.3  1.009 -99.9 -99.99 -9.99
2019/07/19 17:00 EDT    0.29   0.76 -999 -999 -999 -99.9  84.0 1013.3 16.3  1.009 -99.9 -99.99 -9.99
2019/07/19 17:06 EDT    0.27   0.75 -999 -999 -999 -99.9  83.7 1013.2 16.3  1.009 -99.9 -99.99 -9.99
2019/07/19 17:12 EDT    0.26   0.74 -999 -999 -999 -99.9  83.7 1013.2 16.4  1.009 -99.9 -99.99 -9.99
2019/07/19 17:18 EDT    0.25   0.74 -999 -999 -999 -99.9  83.5 1013.2 16.4  1.009 -99.9 -99.99 -9.99
2019/07/19 17:24 EDT    0.24   0.72 -999 -999 -999 -99.9  84.0 1013.2 16.3  1.009 -99.9 -99.99 -9.99
2019/07/19 17:30 EDT    0.23   0.72 -999 -999 -999 -99.9  83.7 1013.3 16.3  1.009 -99.9 -99.99 -9.99
2019/07/19 17:36 EDT    0.23   0.71 -999 -999 -999 -99.9  83.7 1013.3 16.3  1.009 -99.9 -99.99 -9.99
2019/07/19 17:42 EDT    0.23   0.69 -999 -999 -999 -99.9  83.5 1013.2 16.4  1.009 -99.9 -99.99 -9.99
2019/07/19 17:48 EDT    0.23   0.73 -999 -999 -999 -99.9  83.7 1013.2 16.3  1.009 -99.9 -99.99 -9.99
2019/07/19 17:54 EDT    0.24   0.72 -999 -999 -999 -99.9  83.7 1013.1 16.3  1.009 -99.9 -99.99 -9.99
2019/07/19 18:00 EDT    0.24   0.78 -999 -999 -999 -99.9  84.0 1013.2 16.3  1.009 -99.9 -99.99 -9.99
2019/07/19 18:06 EDT    0.26   0.76 -999 -999 -999 -99.9  83.8 1013.2 16.3  1.009 -99.9 -99.99 -9.99
2019/07/19 18:12 EDT    0.27   0.78 -999 -999 -999 -99.9  84.0 1013.2 16.2  1.009 -99.9 -99.99 -9.99
2019/07/19 18:18 EDT    0.29   0.77 -999 -999 -999 -99.9  84.2 1013.1 16.3  1.009 -99.9 -99.99 -9.99
2019/07/19 18:24 EDT    0.31   0.80 -999 -999 -999 -99.9  84.0 1013.0 16.3  1.009 -99.9 -99.99 -9.99
2019/07/19 18:30 EDT    0.34   0.84 -999 -999 -999 -99.9  84.0 1013.1 16.3  1.009 -99.9 -99.99 -9.99
2019/07/19 18:36 EDT    0.36   0.89 -999 -999 -999 -99.9  83.8 1013.0 16.3  1.009 -99.9 -99.99 -9.99
2019/07/19 18:42 EDT    0.39   0.87 -999 -999 -999 -99.9  84.0 1013.0 16.3  1.009 -99.9 -99.99 -9.99
2019/07/19 18:48 EDT    0.42   0.95 -999 -999 -999 -99.9  85.5 1013.0 16.1  1.009 -99.9 -99.99 -9.99
2019/07/19 18:54 EDT    0.46   0.95 -999 -999 -999 -99.9  85.3 1012.9 16.2  1.009 -99.9 -99.99 -9.99
2019/07/19 19:00 EDT    0.50   1.00 -999 -999 -999 -99.9  84.7 1013.0 16.3  1.009 -99.9 -99.99 -9.99
2019/07/19 19:06 EDT    0.54   1.04 -999 -999 -999 -99.9  84.4 1013.1 16.3  1.009 -99.9 -99.99 -9.99
2019/07/19 19:12 EDT    0.58   1.07 -999 -999 -999 -99.9  84.7 1013.2 16.2  1.009 -99.9 -99.99 -9.99
2019/07/19 19:18 EDT    0.62   1.13 -999 -999 -999 -99.9  85.8 1013.2 16.1  1.009 -99.9 -99.99 -9.99
2019/07/19 19:24 EDT    0.67   1.15 -999 -999 -999 -99.9  86.5 1013.3 15.9  1.008 -99.9 -99.99 -9.99
2019/07/19 19:30 EDT    0.72   1.22 -999 -999 -999 -99.9  86.5 1013.2 15.9  1.008 -99.9 -99.99 -9.99
2019/07/19 19:36 EDT    0.77   1.27 -999 -999 -999 -99.9  86.0 1013.3 16.0  1.008 -99.9 -99.99 -9.99
2019/07/19 19:42 EDT    0.82   1.30 -999 -999 -999 -99.9  86.0 1013.4 16.0  1.008 -99.9 -99.99 -9.99
2019/07/19 19:48 EDT    0.87   1.39 -999 -999 -999 -99.9  86.2 1013.3 16.0  1.008 -99.9 -99.99 -9.99
2019/07/19 19:54 EDT    0.93   1.42 -999 -999 -999 -99.9  86.4 1013.3 16.0  1.008 -99.9 -99.99 -9.99
2019/07/19 20:00 EDT    0.98   1.50 -999 -999 -999 -99.9  86.5 1013.4 15.9  1.008 -99.9 -99.99 -9.99
2019/07/19 20:06 EDT    1.04   1.55 -999 -999 -999 -99.9  86.7 1013.4 15.9  1.008 -99.9 -99.99 -9.99
2019/07/19 20:12 EDT    1.10   1.60 -999 -999 -999 -99.9  86.7 1013.4 15.9  1.008 -99.9 -99.99 -9.99
2019/07/19 20:18 EDT    1.16   1.68 -999 -999 -999 -99.9  86.7 1013.3 15.9  1.008 -99.9 -99.99 -9.99
2019/07/19 20:24 EDT    1.22   1.72 -999 -999 -999 -99.9  86.7 1013.2 15.9  1.008 -99.9 -99.99 -9.99
2019/07/19 20:30 EDT    1.28   1.79 -999 -999 -999 -99.9  86.5 1013.2 15.9  1.008 -99.9 -99.99 -9.99
2019/07/19 20:36 EDT    1.34   1.84 -999 -999 -999 -99.9  86.2 1013.3 16.3  1.009 -99.9 -99.99 -9.99
2019/07/19 20:42 EDT    1.40   1.89 -999 -999 -999 -99.9  86.5 1013.3 16.1  1.008 -99.9 -99.99 -9.99
2019/07/19 20:48 EDT    1.46   1.95 -999 -999 -999 -99.9  86.5 1013.4 16.1  1.008 -99.9 -99.99 -9.99
2019/07/19 20:54 EDT    1.53   1.99 -999 -999 -999 -99.9  86.2 1013.5 16.2  1.009 -99.9 -99.99 -9.99
2019/07/19 21:00 EDT    1.59   2.04 -999 -999 -999 -99.9  84.7 1013.5 16.5  1.009 -99.9 -99.99 -9.99
2019/07/19 21:06 EDT    1.65   2.10 -999 -999 -999 -99.9  86.0 1013.6 16.3  1.009 -99.9 -99.99 -9.99
2019/07/19 21:12 EDT    1.71   2.16 -999 -999 -999 -99.9  86.0 1013.7 16.3  1.009 -99.9 -99.99 -9.99
2019/07/19 21:18 EDT    1.77   2.23 -999 -999 -999 -99.9  86.4 1013.8 16.3  1.009 -99.9 -99.99 -9.99
2019/07/19 21:24 EDT    1.83   2.29 -999 -999 -999 -99.9  86.4 1013.9 16.3  1.009 -99.9 -99.99 -9.99
2019/07/19 21:30 EDT    1.88   2.34 -999 -999 -999 -99.9  86.2 1014.0 16.3  1.009 -99.9 -99.99 -9.99
2019/07/19 21:36 EDT    1.94   2.40 -999 -999 -999 -99.9  85.8 1014.1 16.4  1.009 -99.9 -99.99 -9.99
2019/07/19 21:42 EDT    1.99   2.44 -999 -999 -999 -99.9  85.3 1014.3 16.5  1.009 -99.9 -99.99 -9.99
2019/07/19 21:48 EDT    2.05   2.48 -999 -999 -999 -99.9  84.7 1014.4 16.7  1.009 -99.9 -99.99 -9.99
2019/07/19 21:54 EDT    2.10   2.52 -999 -999 -999 -99.9  85.3 1014.4 16.6  1.009 -99.9 -99.99 -9.99
2019/07/19 22:00 EDT    2.15   2.57 -999 -999 -999 -99.9  85.6 1014.5 16.5  1.009 -99.9 -99.99 -9.99
2019/07/19 22:06 EDT    2.20   2.62 -999 -999 -999 -99.9  85.6 1014.5 16.5  1.009 -99.9 -99.99 -9.99
2019/07/19 22:12 EDT    2.25   2.65 -999 -999 -999 -99.9  85.3 1014.5 16.5  1.009 -99.9 -99.99 -9.99
2019/07/19 22:18 EDT    2.29   2.69 -999 -999 -999 -99.9  84.2 1014.5 16.7  1.009 -99.9 -99.99 -9.99
2019/07/19 22:24 EDT    2.33   2.73 -999 -999 -999 -99.9  84.9 1014.5 16.6  1.009 -99.9 -99.99 -9.99
2019/07/19 22:30 EDT    2.37   2.77 -999 -999 -999 -99.9  84.2 1014.5 16.8  1.009 -99.9 -99.99 -9.99
2019/07/19 22:36 EDT    2.41   2.81 -999 -999 -999 -99.9  83.5 1014.5 17.0  1.010 -99.9 -99.99 -9.99
2019/07/19 22:42 EDT    2.45   2.85 -999 -999 -999 -99.9  83.1 1014.5 17.1  1.010 -99.9 -99.99 -9.99
2019/07/19 22:48 EDT    2.48   2.88 -999 -999 -999 -99.9  84.7 1014.5 16.7  1.009 -99.9 -99.99 -9.99
2019/07/19 22:54 EDT    2.51   2.91 -999 -999 -999 -99.9  85.1 1014.5 16.6  1.009 -99.9 -99.99 -9.99
2019/07/19 23:00 EDT    2.54   2.93 -999 -999 -999 -99.9  84.6 1014.5 16.7  1.009 -99.9 -99.99 -9.99
2019/07/19 23:06 EDT    2.57   2.95 -999 -999 -999 -99.9  84.7 1014.5 16.7  1.009 -99.9 -99.99 -9.99
2019/07/19 23:12 EDT    2.59   2.97 -999 -999 -999 -99.9  84.4 1014.4 16.7  1.009 -99.9 -99.99 -9.99
2019/07/19 23:18 EDT    2.61   2.99 -999 -999 -999 -99.9  83.8 1014.4 16.8  1.009 -99.9 -99.99 -9.99
2019/07/19 23:24 EDT    2.63   2.99 -999 -999 -999 -99.9  84.7 1014.4 16.6  1.009 -99.9 -99.99 -9.99
2019/07/19 23:30 EDT    2.64   3.03 -999 -999 -999 -99.9  84.7 1014.3 16.5  1.009 -99.9 -99.99 -9.99
2019/07/19 23:36 EDT    2.65   3.03 -999 -999 -999 -99.9  85.3 1014.3 16.5  1.009 -99.9 -99.99 -9.99
2019/07/19 23:42 EDT    2.66   3.03 -999 -999 -999 -99.9  85.1 1014.3 16.5  1.009 -99.9 -99.99 -9.99
2019/07/19 23:48 EDT    2.66   3.05 -999 -999 -999 -99.9  84.9 1014.2 16.5  1.009 -99.9 -99.99 -9.99
2019/07/19 23:54 EDT    2.67   3.04 -999 -999 -999 -99.9  85.3 1014.3 16.4  1.009 -99.9 -99.99 -9.99
2019/07/20 00:00 EDT    2.66   3.05 -999 -999 -999 -99.9  85.3 1014.2 16.4  1.009 -99.9 -99.99 -9.99
2019/07/20 00:06 EDT    2.66   3.03 -999 -999 -999 -99.9  85.5 1014.2 16.4  1.009 -99.9 -99.99 -9.99
2019/07/20 00:12 EDT    2.65   3.01 -999 -999 -999 -99.9  85.3 1014.2 16.4  1.009 -99.9 -99.99 -9.99
2019/07/20 00:18 EDT    2.64   2.99 -999 -999 -999 -99.9  84.0 1014.2 16.7  1.009 -99.9 -99.99 -9.99
2019/07/20 00:24 EDT    2.63   2.98 -999 -999 -999 -99.9  82.9 1014.2 16.9  1.010 -99.9 -99.99 -9.99
2019/07/20 00:30 EDT    2.62   2.97 -999 -999 -999 -99.9  83.8 1014.1 16.8  1.009 -99.9 -99.99 -9.99
2019/07/20 00:36 EDT    2.60   2.94 -999 -999 -999 -99.9  83.7 1014.1 16.8  1.009 -99.9 -99.99 -9.99
2019/07/20 00:42 EDT    2.58   2.93 -999 -999 -999 -99.9  83.8 1014.0 16.8  1.009 -99.9 -99.99 -9.99
2019/07/20 00:48 EDT    2.55   2.90 -999 -999 -999 -99.9  84.0 1014.1 16.8  1.009 -99.9 -99.99 -9.99
2019/07/20 00:54 EDT    2.53   2.88 -999 -999 -999 -99.9  84.2 1014.1 16.8  1.009 -99.9 -99.99 -9.99
2019/07/20 01:00 EDT    2.50   2.84 -999 -999 -999 -99.9  83.5 1014.0 17.0  1.010 -99.9 -99.99 -9.99
2019/07/20 01:06 EDT    2.46   2.81 -999 -999 -999 -99.9  83.3 1013.9 17.1  1.010 -99.9 -99.99 -9.99
2019/07/20 01:12 EDT    2.43   2.78 -999 -999 -999 -99.9  82.6 1013.9 17.3  1.010 -99.9 -99.99 -9.99
2019/07/20 01:18 EDT    2.39   2.75 -999 -999 -999 -99.9  82.6 1013.9 17.3  1.010 -99.9 -99.99 -9.99
2019/07/20 01:24 EDT    2.35   2.69 -999 -999 -999 -99.9  82.6 1014.0 17.2  1.010 -99.9 -99.99 -9.99
2019/07/20 01:30 EDT    2.31   2.66 -999 -999 -999 -99.9  82.8 1013.9 17.2  1.010 -99.9 -99.99 -9.99
2019/07/20 01:36 EDT    2.27   2.63 -999 -999 -999 -99.9  82.9 1014.0 17.2  1.010 -99.9 -99.99 -9.99
2019/07/20 01:42 EDT    2.22   2.58 -999 -999 -999 -99.9  82.9 1014.0 17.2  1.010 -99.9 -99.99 -9.99
2019/07/20 01:48 EDT    2.17   2.53 -999 -999 -999 -99.9  82.4 1014.0 17.3  1.010 -99.9 -99.99 -9.99
2019/07/20 01:54 EDT    2.12   2.49 -999 -999 -999 -99.9  82.2 1013.9 17.4  1.010 -99.9 -99.99 -9.99
2019/07/20 02:00 EDT    2.07   2.43 -999 -999 -999 -99.9  82.4 1013.8 17.3  1.010 -99.9 -99.99 -9.99
2019/07/20 02:06 EDT    2.02   2.38 -999 -999 -999 -99.9  82.8 1013.8 17.2  1.010 -99.9 -99.99 -9.99
2019/07/20 02:12 EDT    1.96   2.33 -999 -999 -999 -99.9  82.4 1013.8 17.3  1.010 -99.9 -99.99 -9.99
2019/07/20 02:18 EDT    1.91   2.28 -999 -999 -999 -99.9  83.1 1013.8 17.1  1.010 -99.9 -99.99 -9.99
2019/07/20 02:24 EDT    1.85   2.24 -999 -999 -999 -99.9  83.5 1013.8 17.0  1.010 -99.9 -99.99 -9.99
2019/07/20 02:30 EDT    1.79   2.17 -999 -999 -999 -99.9  83.5 1013.8 17.0  1.010 -99.9 -99.99 -9.99
2019/07/20 02:36 EDT    1.73   2.13 -999 -999 -999 -99.9  83.5 1013.7 17.0  1.010 -99.9 -99.99 -9.99
2019/07/20 02:42 EDT    1.67   2.04 -999 -999 -999 -99.9  83.3 1013.6 17.0  1.010 -99.9 -99.99 -9.99
2019/07/20 02:48 EDT    1.61   2.01 -999 -999 -999 -99.9  83.7 1013.6 16.9  1.010 -99.9 -99.99 -9.99
2019/07/20 02:54 EDT    1.55   1.96 -999 -999 -999 -99.9  83.8 1013.5 16.9  1.009 -99.9 -99.99 -9.99
2019/07/20 03:00 EDT    1.49   1.90 -999 -999 -999 -99.9  83.3 1013.5 17.0  1.010 -99.9 -99.99 -9.99
2019/07/20 03:06 EDT    1.43   1.85 -999 -999 -999 -99.9  83.5 1013.6 17.0  1.010 -99.9 -99.99 -9.99
2019/07/20 03:12 EDT    1.36   1.78 -999 -999 -999 -99.9  83.5 1013.5 17.0  1.010 -99.9 -99.99 -9.99
2019/07/20 03:18 EDT    1.30   1.71 -999 -999 -999 -99.9  83.5 1013.5 17.0  1.010 -99.9 -99.99 -9.99
2019/07/20 03:24 EDT    1.24   1.66 -999 -999 -999 -99.9  84.2 1013.5 16.7  1.009 -99.9 -99.99 -9.99
2019/07/20 03:30 EDT    1.18   1.60 -999 -999 -999 -99.9  84.0 1013.5 16.8  1.009 -99.9 -99.99 -9.99
2019/07/20 03:36 EDT    1.12   1.56 -999 -999 -999 -99.9  84.0 1013.4 16.7  1.009 -99.9 -99.99 -9.99
2019/07/20 03:42 EDT    1.06   1.50 -999 -999 -999 -99.9  83.8 1013.5 16.8  1.009 -99.9 -99.99 -9.99
2019/07/20 03:48 EDT    1.00   1.45 -999 -999 -999 -99.9  83.8 1013.6 16.8  1.009 -99.9 -99.99 -9.99
2019/07/20 03:54 EDT    0.94   1.39 -999 -999 -999 -99.9  83.8 1013.5 16.9  1.009 -99.9 -99.99 -9.99
2019/07/20 04:00 EDT    0.88   1.34 -999 -999 -999 -99.9  83.7 1013.4 16.9  1.010 -99.9 -99.99 -9.99
2019/07/20 04:06 EDT    0.82   1.29 -999 -999 -999 -99.9  84.0 1013.5 16.8  1.009 -99.9 -99.99 -9.99
2019/07/20 04:12 EDT    0.77   1.25 -999 -999 -999 -99.9  84.4 1013.5 16.8  1.009 -99.9 -99.99 -9.99
2019/07/20 04:18 EDT    0.72   1.19 -999 -999 -999 -99.9  84.6 1013.5 16.6  1.009 -99.9 -99.99 -9.99
2019/07/20 04:24 EDT    0.66   1.15 -999 -999 -999 -99.9  84.6 1013.5 16.6  1.009 -99.9 -99.99 -9.99
2019/07/20 04:30 EDT    0.62   1.09 -999 -999 -999 -99.9  84.7 1013.5 16.5  1.009 -99.9 -99.99 -9.99
2019/07/20 04:36 EDT    0.57   1.05 -999 -999 -999 -99.9  84.9 1013.5 16.5  1.009 -99.9 -99.99 -9.99
2019/07/20 04:42 EDT    0.52   1.00 -999 -999 -999 -99.9  84.7 1013.5 16.5  1.009 -99.9 -99.99 -9.99
2019/07/20 04:48 EDT    0.48   0.96 -999 -999 -999 -99.9  84.9 1013.6 16.5  1.009 -99.9 -99.99 -9.99
2019/07/20 04:54 EDT    0.44   0.91 -999 -999 -999 -99.9  84.9 1013.7 16.4  1.009 -99.9 -99.99 -9.99
2019/07/20 05:00 EDT    0.40   0.87 -999 -999 -999 -99.9  84.9 1013.7 16.4  1.009 -99.9 -99.99 -9.99
2019/07/20 05:06 EDT    0.37   0.83 -999 -999 -999 -99.9  84.7 1013.9 16.5  1.009 -99.9 -99.99 -9.99
2019/07/20 05:12 EDT    0.33   0.79 -999 -999 -999 -99.9  84.9 1013.8 16.5  1.009 -99.9 -99.99 -9.99
2019/07/20 05:18 EDT    0.30   0.79 -999 -999 -999 -99.9  84.9 1013.7 16.5  1.009 -99.9 -99.99 -9.99
2019/07/20 05:24 EDT    0.27   0.77 -999 -999 -999 -99.9  84.9 1013.7 16.5  1.009 -99.9 -99.99 -9.99
2019/07/20 05:30 EDT    0.25   0.76 -999 -999 -999 -99.9  84.9 1013.8 16.5  1.009 -99.9 -99.99 -9.99
2019/07/20 05:36 EDT    0.23   0.75 -999 -999 -999 -99.9  84.7 1013.9 16.5  1.009 -99.9 -99.99 -9.99
2019/07/20 05:42 EDT    0.21   0.71 -999 -999 -999 -99.9  84.7 1013.9 16.5  1.009 -99.9 -99.99 -9.99
2019/07/20 05:48 EDT    0.20   0.73 -999 -999 -999 -99.9  84.7 1013.9 16.5  1.009 -99.9 -99.99 -9.99
2019/07/20 05:54 EDT    0.18   0.70 -999 -999 -999 -99.9  84.7 1014.0 16.4  1.009 -99.9 -99.99 -9.99
2019/07/20 06:00 EDT    0.18   0.71 -999 -999 -999 -99.9  84.7 1014.0 16.5  1.009 -99.9 -99.99 -9.99
2019/07/20 06:06 EDT    0.17   0.69 -999 -999 -999 -99.9  84.9 1014.0 16.4  1.009 -99.9 -99.99 -9.99
2019/07/20 06:12 EDT    0.17   0.71 -999 -999 -999 -99.9  84.7 1014.1 16.4  1.009 -99.9 -99.99 -9.99
2019/07/20 06:18 EDT    0.17   0.72 -999 -999 -999 -99.9  84.7 1014.2 16.4  1.009 -99.9 -99.99 -9.99
2019/07/20 06:24 EDT    0.17   0.74 -999 -999 -999 -99.9  84.9 1014.3 16.4  1.009 -99.9 -99.99 -9.99
2019/07/20 06:30 EDT    0.18   0.76 -999 -999 -999 -99.9  84.7 1014.2 16.4  1.009 -99.9 -99.99 -9.99
2019/07/20 06:36 EDT    0.19   0.76 -999 -999 -999 -99.9  84.6 1014.2 16.5  1.009 -99.9 -99.99 -9.99
2019/07/20 06:42 EDT    0.20   0.77 -999 -999 -999 -99.9  84.6 1014.2 16.5  1.009 -99.9 -99.99 -9.99
2019/07/20 06:48 EDT    0.22   0.79 -999 -999 -999 -99.9  84.6 1014.3 16.5  1.009 -99.9 -99.99 -9.99
2019/07/20 06:54 EDT    0.24   0.80 -999 -999 -999 -99.9  84.6 1014.3 16.5  1.009 -99.9 -99.99 -9.99
2019/07/20 07:00 EDT    0.26   0.83 -999 -999 -999 -99.9  84.6 1014.4 16.5  1.009 -99.9 -99.99 -9.99
2019/07/20 07:06 EDT    0.29   0.84 -999 -999 -999 -99.9  84.6 1014.4 16.5  1.009 -99.9 -99.99 -9.99
2019/07/20 07:12 EDT    0.32   0.88 -999 -999 -999 -99.9  84.4 1014.4 16.5  1.009 -99.9 -99.99 -9.99
2019/07/20 07:18 EDT    0.35   0.91 -999 -999 -999 -99.9  84.4 1014.4 16.5  1.009 -99.9 -99.99 -9.99
2019/07/20 07:24 EDT    0.38   0.94 -999 -999 -999 -99.9  84.4 1014.4 16.5  1.009 -99.9 -99.99 -9.99
2019/07/20 07:30 EDT    0.42   0.95 -999 -999 -999 -99.9  84.4 1014.4 16.5  1.009 -99.9 -99.99 -9.99
2019/07/20 07:36 EDT    0.46   0.97 -999 -999 -999 -99.9  84.4 1014.4 16.5  1.009 -99.9 -99.99 -9.99
2019/07/20 07:42 EDT    0.50   1.00 -999 -999 -999 -99.9  84.4 1014.4 16.5  1.009 -99.9 -99.99 -9.99
2019/07/20 07:48 EDT    0.54   1.05 -999 -999 -999 -99.9  84.4 1014.4 16.5  1.009 -99.9 -99.99 -9.99
2019/07/20 07:54 EDT    0.59   1.09 -999 -999 -999 -99.9  83.8 1014.4 16.6  1.009 -99.9 -99.99 -9.99
2019/07/20 08:00 EDT    0.63   1.13 -999 -999 -999 -99.9  84.4 1014.4 16.5  1.009 -99.9 -99.99 -9.99
2019/07/20 08:06 EDT    0.68   1.17 -999 -999 -999 -99.9  84.4 1014.4 16.5  1.009 -99.9 -99.99 -9.99
2019/07/20 08:12 EDT    0.73   1.21 -999 -999 -999 -99.9  84.2 1014.4 16.5  1.009 -99.9 -99.99 -9.99
2019/07/20 08:18 EDT    0.79   1.26 -999 -999 -999 -99.9  84.2 1014.4 16.5  1.009 -99.9 -99.99 -9.99
2019/07/20 08:24 EDT    0.84   1.32 -999 -999 -999 -99.9  84.4 1014.5 16.4  1.009 -99.9 -99.99 -9.99
2019/07/20 08:30 EDT    0.89   1.36 -999 -999 -999 -99.9  84.4 1014.4 16.3  1.009 -99.9 -99.99 -9.99
2019/07/20 08:36 EDT    0.95   1.41 -999 -999 -999 -99.9  84.6 1014.4 16.3  1.009 -99.9 -99.99 -9.99
2019/07/20 08:42 EDT    1.01   1.46 -999 -999 -999 -99.9  84.2 1014.4 16.2  1.009 -99.9 -99.99 -9.99
2019/07/20 08:48 EDT    1.06   1.51 -999 -999 -999 -99.9  84.0 1014.3 16.2  1.009 -99.9 -99.99 -9.99
2019/07/20 08:54 EDT    1.12   1.56 -999 -999 -999 -99.9  83.8 1014.4 16.1  1.009 -99.9 -99.99 -9.99
2019/07/20 09:00 EDT    1.18   1.61 -999 -999 -999 -99.9  83.8 1014.4 16.1  1.009 -99.9 -99.99 -9.99
2019/07/20 09:06 EDT    1.24   1.67 -999 -999 -999 -99.9  83.8 1014.5 16.1  1.009 -99.9 -99.99 -9.99
2019/07/20 09:12 EDT    1.30   1.73 -999 -999 -999 -99.9  83.8 1014.5 16.1  1.009 -99.9 -99.99 -9.99
2019/07/20 09:18 EDT    1.35   1.79 -999 -999 -999 -99.9  84.6 1014.6 16.2  1.009 -99.9 -99.99 -9.99
2019/07/20 09:24 EDT    1.41   1.82 -999 -999 -999 -99.9  84.9 1014.5 16.2  1.009 -99.9 -99.99 -9.99
2019/07/20 09:30 EDT    1.47   1.88 -999 -999 -999 -99.9  84.7 1014.5 16.1  1.009 -99.9 -99.99 -9.99
2019/07/20 09:36 EDT    1.52   1.94 -999 -999 -999 -99.9  84.4 1014.5 16.1  1.009 -99.9 -99.99 -9.99
2019/07/20 09:42 EDT    1.58   2.00 -999 -999 -999 -99.9  84.0 1014.5 16.1  1.009 -99.9 -99.99 -9.99
2019/07/20 09:48 EDT    1.63   2.05 -999 -999 -999 -99.9  84.0 1014.6 16.1  1.009 -99.9 -99.99 -9.99
2019/07/20 09:54 EDT    1.69   2.09 -999 -999 -999 -99.9  84.6 1014.6 16.0  1.009 -99.9 -99.99 -9.99
2019/07/20 10:00 EDT    1.74   2.14 -999 -999 -999 -99.9  84.2 1014.6 16.0  1.009 -99.9 -99.99 -9.99
2019/07/20 10:06 EDT    1.79   2.18 -999 -999 -999 -99.9  84.0 1014.5 16.1  1.009 -99.9 -99.99 -9.99
2019/07/20 10:12 EDT    1.84   2.24 -999 -999 -999 -99.9  84.7 1014.5 16.2  1.009 -99.9 -99.99 -9.99
2019/07/20 10:18 EDT    1.89   2.29 -999 -999 -999 -99.9  84.4 1014.5 16.3  1.009 -99.9 -99.99 -9.99
2019/07/20 10:24 EDT    1.94   2.32 -999 -999 -999 -99.9  84.2 1014.5 16.3  1.009 -99.9 -99.99 -9.99
2019/07/20 10:30 EDT    1.98   2.39 -999 -999 -999 -99.9  83.8 1014.5 16.4  1.009 -99.9 -99.99 -9.99
2019/07/20 10:36 EDT    2.02   2.43 -999 -999 -999 -99.9  83.7 1014.5 16.5  1.009 -99.9 -99.99 -9.99
2019/07/20 10:42 EDT    2.06   2.48 -999 -999 -999 -99.9  83.8 1014.5 16.4  1.009 -99.9 -99.99 -9.99
2019/07/20 10:48 EDT    2.10   2.53 -999 -999 -999 -99.9  84.0 1014.5 16.4  1.009 -99.9 -99.99 -9.99
2019/07/20 10:54 EDT    2.14   2.57 -999 -999 -999 -99.9  84.0 1014.6 16.3  1.009 -99.9 -99.99 -9.99
2019/07/20 11:00 EDT    2.17   2.61 -999 -999 -999 -99.9  84.0 1014.7 16.3  1.009 -99.9 -99.99 -9.99
2019/07/20 11:06 EDT    2.20   2.64 -999 -999 -999 -99.9  83.1 1014.6 16.6  1.009 -99.9 -99.99 -9.99
2019/07/20 11:12 EDT    2.23   2.66 -999 -999 -999 -99.9  83.1 1014.7 16.6  1.009 -99.9 -99.99 -9.99
2019/07/20 11:18 EDT    2.26   2.69 -999 -999 -999 -99.9  83.7 1014.7 16.4  1.009 -99.9 -99.99 -9.99
2019/07/20 11:24 EDT    2.28   2.72 -999 -999 -999 -99.9  83.8 1014.7 16.3  1.009 -99.9 -99.99 -9.99
2019/07/20 11:30 EDT    2.30   2.74 -999 -999 -999 -99.9  84.2 1014.6 16.2  1.009 -99.9 -99.99 -9.99
2019/07/20 11:36 EDT    2.32   2.76 -999 -999 -999 -99.9  84.0 1014.7 16.3  1.009 -99.9 -99.99 -9.99
2019/07/20 11:42 EDT    2.34   2.78 -999 -999 -999 -99.9  84.0 1014.6 16.3  1.009 -99.9 -99.99 -9.99
2019/07/20 11:48 EDT    2.35   2.78 -999 -999 -999 -99.9  84.0 1014.7 16.2  1.009 -99.9 -99.99 -9.99
2019/07/20 11:54 EDT    2.36   2.79 -999 -999 -999 -99.9  84.2 1014.7 16.2  1.009 -99.9 -99.99 -9.99
2019/07/20 12:00 EDT    2.37   2.80 -999 -999 -999 -99.9  84.0 1014.6 16.2  1.009 -99.9 -99.99 -9.99
2019/07/20 12:06 EDT    2.37   2.79 -999 -999 -999 -99.9  84.0 1014.6 16.1  1.009 -99.9 -99.99 -9.99
2019/07/20 12:12 EDT    2.37   2.80 -999 -999 -999 -99.9  84.0 1014.5 16.1  1.009 -99.9 -99.99 -9.99
2019/07/20 12:18 EDT    2.37   2.79 -999 -999 -999 -99.9  84.2 1014.5 16.1  1.009 -99.9 -99.99 -9.99
2019/07/20 12:24 EDT    2.37   2.80 -999 -999 -999 -99.9  84.2 1014.4 16.1  1.009 -99.9 -99.99 -9.99
2019/07/20 12:30 EDT    2.36   2.80 -999 -999 -999 -99.9  84.4 1014.3 16.1  1.009 -99.9 -99.99 -9.99
2019/07/20 12:36 EDT    2.35   2.77 -999 -999 -999 -99.9  84.4 1014.3 16.1  1.009 -99.9 -99.99 -9.99
2019/07/20 12:42 EDT    2.34   2.72 -999 -999 -999 -99.9  84.4 1014.2 16.1  1.009 -99.9 -99.99 -9.99
2019/07/20 12:48 EDT    2.33   2.73 -999 -999 -999 -99.9  84.2 1014.1 16.2  1.009 -99.9 -99.99 -9.99
2019/07/20 12:54 EDT    2.31   2.72 -999 -999 -999 -99.9  83.8 1014.1 16.2  1.009 -99.9 -99.99 -9.99
2019/07/20 13:00 EDT    2.29   2.69 -999 -999 -999 -99.9  83.8 1014.1 16.3  1.009 -99.9 -99.99 -9.99
2019/07/20 13:06 EDT    2.27   2.66 -999 -999 -999 -99.9  83.8 1014.0 16.2  1.009 -99.9 -99.99 -9.99
2019/07/20 13:12 EDT    2.25   2.66 -999 -999 -999 -99.9  84.0 1013.9 16.2  1.009 -99.9 -99.99 -9.99
2019/07/20 13:18 EDT    2.22   2.59 -999 -999 -999 -99.9  84.2 1013.9 16.2  1.009 -99.9 -99.99 -9.99
2019/07/20 13:24 EDT    2.19   2.60 -999 -999 -999 -99.9  84.2 1013.8 16.2  1.009 -99.9 -99.99 -9.99
2019/07/20 13:30 EDT    2.16   2.57 -999 -999 -999 -99.9  84.2 1013.7 16.2  1.009 -99.9 -99.99 -9.99
2019/07/20 13:36 EDT    2.13   2.54 -999 -999 -999 -99.9  84.2 1013.7 16.2  1.009 -99.9 -99.99 -9.99
2019/07/20 13:42 EDT    2.09   2.50 -999 -999 -999 -99.9  84.2 1013.6 16.2  1.009 -99.9 -99.99 -9.99
2019/07/20 13:48 EDT    2.05   2.48 -999 -999 -999 -99.9  84.0 1013.6 16.2  1.009 -99.9 -99.99 -9.99
2019/07/20 13:54 EDT    2.02   2.44 -999 -999 -999 -99.9  84.2 1013.5 16.1  1.009 -99.9 -99.99 -9.99
2019/07/20 14:00 EDT    1.97   2.41 -999 -999 -999 -99.9  84.2 1013.4 16.1  1.009 -99.9 -99.99 -9.99
2019/07/20 14:06 EDT    1.93   2.38 -999 -999 -999 -99.9  84.0 1013.2 16.1  1.009 -99.9 -99.99 -9.99
2019/07/20 14:12 EDT    1.89   2.31 -999 -999 -999 -99.9  84.0 1013.2 16.1  1.009 -99.9 -99.99 -9.99
2019/07/20 14:18 EDT    1.84   2.29 -999 -999 -999 -99.9  83.8 1013.1 16.3  1.009 -99.9 -99.99 -9.99
2019/07/20 14:24 EDT    1.80   2.21 -999 -999 -999 -99.9  83.7 1013.0 16.3  1.009 -99.9 -99.99 -9.99
2019/07/20 14:30 EDT    1.75   2.18 -999 -999 -999 -99.9  83.7 1012.9 16.3  1.009 -99.9 -99.99 -9.99
2019/07/20 14:36 EDT    1.70   2.13 -999 -999 -999 -99.9  83.8 1012.9 16.2  1.009 -99.9 -99.99 -9.99
2019/07/20 14:42 EDT    1.65   2.10 -999 -999 -999 -99.9  83.8 1012.9 16.2  1.009 -99.9 -99.99 -9.99
2019/07/20 14:48 EDT    1.60   2.04 -999 -999 -999 -99.9  83.8 1012.8 16.2  1.009 -99.9 -99.99 -9.99
2019/07/20 14:54 EDT    1.55   2.01 -999 -999 -999 -99.9  84.0 1012.7 16.2  1.009 -99.9 -99.99 -9.99
2019/07/20 15:00 EDT    1.50   1.93 -999 -999 -999 -99.9  84.0 1012.7 16.2  1.009 -99.9 -99.99 -9.99
2019/07/20 15:06 EDT    1.45   1.90 -999 -999 -999 -99.9  84.0 1012.6 16.2  1.009 -99.9 -99.99 -9.99
2019/07/20 15:12 EDT    1.39   1.83 -999 -999 -999 -99.9  84.2 1012.5 16.2  1.009 -99.9 -99.99 -9.99
2019/07/20 15:18 EDT    1.34   1.79 -999 -999 -999 -99.9  84.2 1012.5 16.1  1.009 -99.9 -99.99 -9.99
2019/07/20 15:24 EDT    1.29   1.73 -999 -999 -999 -99.9  84.0 1012.3 16.2  1.009 -99.9 -99.99 -9.99
2019/07/20 15:30 EDT    1.24   1.69 -999 -999 -999 -99.9  84.0 1012.1 16.2  1.009 -99.9 -99.99 -9.99
2019/07/20 15:36 EDT    1.18   1.62 -999 -999 -999 -99.9  84.2 1012.0 16.1  1.009 -99.9 -99.99 -9.99
2019/07/20 15:42 EDT    1.13   1.58 -999 -999 -999 -99.9  84.4 1012.0 16.1  1.009 -99.9 -99.99 -9.99
2019/07/20 15:48 EDT    1.08   1.51 -999 -999 -999 -99.9  84.4 1011.9 16.1  1.009 -99.9 -99.99 -9.99
2019/07/20 15:54 EDT    1.03   1.47 -999 -999 -999 -99.9  84.0 1011.7 16.2  1.009 -99.9 -99.99 -9.99
2019/07/20 16:00 EDT    0.98   1.42 -999 -999 -999 -99.9  84.2 1011.5 16.1  1.009 -99.9 -99.99 -9.99
2019/07/20 16:06 EDT    0.93   1.39 -999 -999 -999 -99.9  84.0 1011.5 16.1  1.009 -99.9 -99.99 -9.99
2019/07/20 16:12 EDT    0.88   1.30 -999 -999 -999 -99.9  84.0 1011.5 16.1  1.009 -99.9 -99.99 -9.99
2019/07/20 16:18 EDT    0.84   1.30 -999 -999 -999 -99.9  84.0 1011.4 16.1  1.009 -99.9 -99.99 -9.99
2019/07/20 16:24 EDT    0.79   1.24 -999 -999 -999 -99.9  84.2 1011.2 16.1  1.009 -99.9 -99.99 -9.99
2019/07/20 16:30 EDT    0.75   1.20 -999 -999 -999 -99.9  84.0 1011.2 16.1  1.009 -99.9 -99.99 -9.99
2019/07/20 16:36 EDT    0.70   1.17 -999 -999 -999 -99.9  84.2 1011.2 16.1  1.009 -99.9 -99.99 -9.99
2019/07/20 16:42 EDT    0.66   1.09 -999 -999 -999 -99.9  84.4 1011.3 16.1  1.009 -99.9 -99.99 -9.99
2019/07/20 16:48 EDT    0.62   1.04 -999 -999 -999 -99.9  84.4 1011.3 16.1  1.009 -99.9 -99.99 -9.99
2019/07/20 16:54 EDT    0.59   1.03 -999 -999 -999 -99.9  84.6 1011.6 16.1  1.009 -99.9 -99.99 -9.99
2019/07/20 17:00 EDT    0.55   0.98 -999 -999 -999 -99.9  84.6 1011.6 16.0  1.009 -99.9 -99.99 -9.99
2019/07/20 17:06 EDT    0.52   0.97 -999 -999 -999 -99.9  84.4 1011.4 16.1  1.009 -99.9 -99.99 -9.99
2019/07/20 17:12 EDT    0.49   0.92 -999 -999 -999 -99.9  84.4 1011.6 16.1  1.009 -99.9 -99.99 -9.99
2019/07/20 17:18 EDT    0.46   0.89 -999 -999 -999 -99.9  84.4 1011.7 16.1  1.009 -99.9 -99.99 -9.99
2019/07/20 17:24 EDT    0.43   0.86 -999 -999 -999 -99.9  84.2 1011.6 16.1  1.009 -99.9 -99.99 -9.99
2019/07/20 17:30 EDT    0.41   0.84 -999 -999 -999 -99.9  84.2 1011.4 16.1  1.009 -99.9 -99.99 -9.99
2019/07/20 17:36 EDT    0.38   0.85 -999 -999 -999 -99.9  84.2 1011.2 16.1  1.009 -99.9 -99.99 -9.99
2019/07/20 17:42 EDT    0.37   0.77 -999 -999 -999 -99.9  84.6 1011.3 16.1  1.009 -99.9 -99.99 -9.99
2019/07/20 17:48 EDT    0.35   0.80 -999 -999 -999 -99.9  84.6 1011.3 16.1  1.009 -99.9 -99.99 -9.99
2019/07/20 17:54 EDT    0.34   0.79 -999 -999 -999 -99.9  84.6 1011.3 16.1  1.009 -99.9 -99.99 -9.99
2019/07/20 18:00 EDT    0.33   0.77 -999 -999 -999 -99.9  84.4 1011.3 16.1  1.009 -99.9 -99.99 -9.99
2019/07/20 18:06 EDT    0.32   0.78 -999 -999 -999 -99.9  84.7 1011.4 16.0  1.009 -99.9 -99.99 -9.99
2019/07/20 18:12 EDT    0.31   0.76 -999 -999 -999 -99.9  84.7 1011.3 16.0  1.009 -99.9 -99.99 -9.99
2019/07/20 18:18 EDT    0.31   0.78 -999 -999 -999 -99.9  84.4 1011.6 16.1  1.009 -99.9 -99.99 -9.99
2019/07/20 18:24 EDT    0.31   0.77 -999 -999 -999 -99.9  84.6 1011.6 16.1  1.009 -99.9 -99.99 -9.99
2019/07/20 18:30 EDT    0.31   0.78 -999 -999 -999 -99.9  84.7 1011.7 16.0  1.009 -99.9 -99.99 -9.99
2019/07/20 18:36 EDT    0.32   0.79 -999 -999 -999 -99.9  84.7 1011.7 16.2  1.009 -99.9 -99.99 -9.99
2019/07/20 18:42 EDT    0.33   0.79 -999 -999 -999 -99.9  84.7 1011.7 16.1  1.009 -99.9 -99.99 -9.99
2019/07/20 18:48 EDT    0.34   0.82 -999 -999 -999 -99.9  84.9 1011.7 16.1  1.009 -99.9 -99.99 -9.99
2019/07/20 18:54 EDT    0.35   0.81 -999 -999 -999 -99.9  84.9 1011.7 16.1  1.009 -99.9 -99.99 -9.99
2019/07/20 19:00 EDT    0.37   0.82 -999 -999 -999 -99.9  85.3 1011.6 16.0  1.009 -99.9 -99.99 -9.99
2019/07/20 19:06 EDT    0.39   0.84 -999 -999 -999 -99.9  85.8 1011.7 16.0  1.009 -99.9 -99.99 -9.99
2019/07/20 19:12 EDT    0.42   0.85 -999 -999 -999 -99.9  86.2 1011.7 16.0  1.008 -99.9 -99.99 -9.99
2019/07/20 19:18 EDT    0.44   0.89 -999 -999 -999 -99.9  86.2 1011.7 16.0  1.008 -99.9 -99.99 -9.99
2019/07/20 19:24 EDT    0.47   0.89 -999 -999 -999 -99.9  86.2 1011.7 16.0  1.008 -99.9 -99.99 -9.99
2019/07/20 19:30 EDT    0.50   0.93 -999 -999 -999 -99.9  86.0 1011.7 16.0  1.008 -99.9 -99.99 -9.99
2019/07/20 19:36 EDT    0.53   0.94 -999 -999 -999 -99.9  86.0 1011.7 16.0  1.008 -99.9 -99.99 -9.99
2019/07/20 19:42 EDT    0.57   0.99 -999 -999 -999 -99.9  86.0 1011.7 16.0  1.008 -99.9 -99.99 -9.99
2019/07/20 19:48 EDT    0.61   1.02 -999 -999 -999 -99.9  85.8 1011.8 16.0  1.008 -99.9 -99.99 -9.99
2019/07/20 19:54 EDT    0.65   1.08 -999 -999 -999 -99.9  85.8 1011.8 16.0  1.008 -99.9 -99.99 -9.99
2019/07/20 20:00 EDT    0.69   1.12 -999 -999 -999 -99.9  85.8 1011.8 16.0  1.008 -99.9 -99.99 -9.99
2019/07/20 20:06 EDT    0.73   1.18 -999 -999 -999 -99.9  86.0 1012.0 16.0  1.008 -99.9 -99.99 -9.99
2019/07/20 20:12 EDT    0.78   1.23 -999 -999 -999 -99.9  86.0 1012.1 16.0  1.008 -99.9 -99.99 -9.99
2019/07/20 20:18 EDT    0.83   1.28 -999 -999 -999 -99.9  86.0 1012.1 16.0  1.008 -99.9 -99.99 -9.99
2019/07/20 20:24 EDT    0.87   1.33 -999 -999 -999 -99.9  86.0 1012.1 15.9  1.008 -99.9 -99.99 -9.99
2019/07/20 20:30 EDT    0.92   1.39 -999 -999 -999 -99.9  86.0 1012.1 16.0  1.008 -99.9 -99.99 -9.99
2019/07/20 20:36 EDT    0.98   1.44 -999 -999 -999 -99.9  86.0 1012.2 16.0  1.008 -99.9 -99.99 -9.99
2019/07/20 20:42 EDT    1.03   1.47 -999 -999 -999 -99.9 -99.9 -999.9 -9.9 -9.999 -99.9 -99.99 -9.99
2019/07/20 20:48 EDT    1.08   1.45 -999 -999 -999 -99.9  85.6 1012.0 15.8  1.008 -99.9 -99.99 -9.99
2019/07/20 20:54 EDT    1.14   1.57 -999 -999 -999 -99.9  85.8 1012.1 15.8  1.008 -99.9 -99.99 -9.99
2019/07/20 21:00 EDT    1.19   1.61 -999 -999 -999 -99.9  85.8 1012.2 15.7  1.008 -99.9 -99.99 -9.99
2019/07/20 21:06 EDT    1.25   1.66 -999 -999 -999 -99.9  85.8 1012.2 15.7  1.008 -99.9 -99.99 -9.99
2019/07/20 21:12 EDT    1.31   1.68 -999 -999 -999 -99.9  85.8 1012.3 15.7  1.008 -99.9 -99.99 -9.99
2019/07/20 21:18 EDT    1.36   1.76 -999 -999 -999 -99.9  85.8 1012.3 15.7  1.008 -99.9 -99.99 -9.99
2019/07/20 21:24 EDT    1.42   1.77 -999 -999 -999 -99.9  85.8 1012.4 15.6  1.008 -99.9 -99.99 -9.99
2019/07/20 21:30 EDT    1.48   1.90 -999 -999 -999 -99.9  85.8 1012.5 15.6  1.008 -99.9 -99.99 -9.99
2019/07/20 21:36 EDT    1.54   1.92 -999 -999 -999 -99.9  85.8 1012.5 15.6  1.008 -99.9 -99.99 -9.99
2019/07/20 21:42 EDT    1.59   1.99 -999 -999 -999 -99.9  86.0 1012.6 15.7  1.008 -99.9 -99.99 -9.99
2019/07/20 21:48 EDT    1.65   2.02 -999 -999 -999 -99.9  85.8 1012.7 15.6  1.008 -99.9 -99.99 -9.99
2019/07/20 21:54 EDT    1.70   2.08 -999 -999 -999 -99.9  86.0 1012.8 15.6  1.008 -99.9 -99.99 -9.99
2019/07/20 22:00 EDT    1.76   2.14 -999 -999 -999 -99.9  85.8 1012.7 15.6  1.008 -99.9 -99.99 -9.99
2019/07/20 22:06 EDT    1.81   2.16 -999 -999 -999 -99.9  85.8 1012.9 15.6  1.008 -99.9 -99.99 -9.99
2019/07/20 22:12 EDT    1.87   2.20 -999 -999 -999 -99.9  85.8 1013.0 15.6  1.008 -99.9 -99.99 -9.99
2019/07/20 22:18 EDT    1.92   2.24 -999 -999 -999 -99.9  85.8 1013.0 15.5  1.008 -99.9 -99.99 -9.99
2019/07/20 22:24 EDT    1.97   2.26 -999 -999 -999 -99.9  85.8 1012.9 15.5  1.008 -99.9 -99.99 -9.99
2019/07/20 22:30 EDT    2.02   2.31 -999 -999 -999 -99.9  85.8 1012.9 15.5  1.008 -99.9 -99.99 -9.99
2019/07/20 22:36 EDT    2.07   2.35 -999 -999 -999 -99.9  85.8 1012.9 15.6  1.008 -99.9 -99.99 -9.99
2019/07/20 22:42 EDT    2.11   2.39 -999 -999 -999 -99.9  85.8 1012.9 15.7  1.008 -99.9 -99.99 -9.99
2019/07/20 22:48 EDT    2.16   2.44 -999 -999 -999 -99.9  85.6 1012.9 15.8  1.008 -99.9 -99.99 -9.99
2019/07/20 22:54 EDT    2.20   2.48 -999 -999 -999 -99.9  85.6 1012.9 15.8  1.008 -99.9 -99.99 -9.99
2019/07/20 23:00 EDT    2.24   2.52 -999 -999 -999 -99.9  85.6 1012.8 15.8  1.008 -99.9 -99.99 -9.99
2019/07/20 23:06 EDT    2.28   2.58 -999 -999 -999 -99.9  85.8 1012.8 15.8  1.008 -99.9 -99.99 -9.99
2019/07/20 23:12 EDT    2.31   2.62 -999 -999 -999 -99.9  85.8 1012.8 15.8  1.008 -99.9 -99.99 -9.99
2019/07/20 23:18 EDT    2.35   2.66 -999 -999 -999 -99.9  85.8 1012.9 15.8  1.008 -99.9 -99.99 -9.99
2019/07/20 23:24 EDT    2.38   2.69 -999 -999 -999 -99.9  85.8 1012.8 15.7  1.008 -99.9 -99.99 -9.99
2019/07/20 23:30 EDT    2.41   2.71 -999 -999 -999 -99.9  85.8 1012.8 15.7  1.008 -99.9 -99.99 -9.99
2019/07/20 23:36 EDT    2.43   2.74 -999 -999 -999 -99.9  85.8 1012.8 15.7  1.008 -99.9 -99.99 -9.99
2019/07/20 23:42 EDT    2.46   2.76 -999 -999 -999 -99.9  85.8 1012.8 15.6  1.008 -99.9 -99.99 -9.99
2019/07/20 23:48 EDT    2.48   2.77 -999 -999 -999 -99.9  85.8 1012.9 15.6  1.008 -99.9 -99.99 -9.99
2019/07/20 23:54 EDT    2.50   2.81 -999 -999 -999 -99.9  85.8 1012.9 15.6  1.008 -99.9 -99.99 -9.99
2019/07/21 00:00 EDT    2.52   2.84 -999 -999 -999 -99.9  85.8 1012.9 15.5  1.008 -99.9 -99.99 -9.99
2019/07/21 00:06 EDT    2.53   2.84 -999 -999 -999 -99.9  85.6 1012.9 15.5  1.008 -99.9 -99.99 -9.99
2019/07/21 00:12 EDT    2.54   2.85 -999 -999 -999 -99.9  85.8 1012.9 15.5  1.008 -99.9 -99.99 -9.99
2019/07/21 00:18 EDT    2.55   2.85 -999 -999 -999 -99.9  85.8 1012.9 15.6  1.008 -99.9 -99.99 -9.99
2019/07/21 00:24 EDT    2.55   2.86 -999 -999 -999 -99.9  85.8 1012.9 15.5  1.008 -99.9 -99.99 -9.99
2019/07/21 00:30 EDT    2.56   2.87 -999 -999 -999 -99.9  85.8 1012.9 15.5  1.008 -99.9 -99.99 -9.99
2019/07/21 00:36 EDT    2.56   2.88 -999 -999 -999 -99.9  85.8 1013.0 15.4  1.008 -99.9 -99.99 -9.99
2019/07/21 00:42 EDT    2.55   2.87 -999 -999 -999 -99.9  85.8 1013.0 15.4  1.008 -99.9 -99.99 -9.99
2019/07/21 00:48 EDT    2.55   2.85 -999 -999 -999 -99.9  85.8 1013.0 15.4  1.008 -99.9 -99.99 -9.99
2019/07/21 00:54 EDT    2.54   2.83 -999 -999 -999 -99.9  85.8 1013.0 15.4  1.008 -99.9 -99.99 -9.99
2019/07/21 01:00 EDT    2.53   2.81 -999 -999 -999 -99.9  85.8 1012.9 15.4  1.008 -99.9 -99.99 -9.99
2019/07/21 01:06 EDT    2.51   2.79 -999 -999 -999 -99.9  85.8 1012.9 15.4  1.008 -99.9 -99.99 -9.99
2019/07/21 01:12 EDT    2.49   2.77 -999 -999 -999 -99.9  85.8 1012.9 15.4  1.008 -99.9 -99.99 -9.99
2019/07/21 01:18 EDT    2.48   2.73 -999 -999 -999 -99.9  85.6 1012.9 15.4  1.008 -99.9 -99.99 -9.99
2019/07/21 01:24 EDT    2.45   2.72 -999 -999 -999 -99.9  85.6 1012.9 15.4  1.008 -99.9 -99.99 -9.99
2019/07/21 01:30 EDT    2.43   2.68 -999 -999 -999 -99.9  85.6 1013.0 15.4  1.008 -99.9 -99.99 -9.99
2019/07/21 01:36 EDT    2.40   2.66 -999 -999 -999 -99.9  85.6 1013.0 15.4  1.008 -99.9 -99.99 -9.99
2019/07/21 01:42 EDT    2.37   2.63 -999 -999 -999 -99.9  85.6 1012.9 15.4  1.008 -99.9 -99.99 -9.99
2019/07/21 01:48 EDT    2.34   2.61 -999 -999 -999 -99.9  85.6 1012.9 15.4  1.008 -99.9 -99.99 -9.99
2019/07/21 01:54 EDT    2.30   2.57 -999 -999 -999 -99.9  85.6 1013.0 15.4  1.008 -99.9 -99.99 -9.99
2019/07/21 02:00 EDT    2.27   2.54 -999 -999 -999 -99.9  85.6 1013.0 15.4  1.008 -99.9 -99.99 -9.99
2019/07/21 02:06 EDT    2.23   2.50 -999 -999 -999 -99.9  85.6 1013.0 15.4  1.008 -99.9 -99.99 -9.99
2019/07/21 02:12 EDT    2.19   2.46 -999 -999 -999 -99.9  85.6 1013.0 15.4  1.008 -99.9 -99.99 -9.99
2019/07/21 02:18 EDT    2.15   2.41 -999 -999 -999 -99.9  85.6 1012.9 15.4  1.008 -99.9 -99.99 -9.99
2019/07/21 02:24 EDT    2.10   2.38 -999 -999 -999 -99.9  85.6 1012.9 15.3  1.008 -99.9 -99.99 -9.99
2019/07/21 02:30 EDT    2.05 -99.99 -999 -999 -999 -99.9 -99.9 -999.9 -9.9 -9.999 -99.9 -99.99 -9.99
2019/07/21 02:36 EDT    2.01 -99.99 -999 -999 -999 -99.9 -99.9 -999.9 -9.9 -9.999 -99.9 -99.99 -9.99
2019/07/21 02:42 EDT    1.96 -99.99 -999 -999 -999 -99.9 -99.9 -999.9 -9.9 -9.999 -99.9 -99.99 -9.99

Revised: 08/08/2018
NOAA / National Ocean Service
Web site owner: Center for Operational Oceanographic Products and Services